Observation data for Coyanosa on 02/16/2018      Previous  Date  Next       Current Mesonet Observations  Soil Data  Daily Summary Page  Observations in Plain Language
KCO1 160600Z 25005KT 18/09 A301 RMK A01 T01780091  RH  057%=      5-min Rain = 0
KCO1 160601Z 25005KT 18/09 A301 RMK A01 T01780090  RH  056%=      5-min Rain = 0
KCO1 160602Z 27005KT 18/09 A301 RMK A01 T01770090  RH  056%=      5-min Rain = 0
KCO1 160603Z 27005KT 18/09 A301 RMK A01 T01770091  RH  057%=      5-min Rain = 0
KCO1 160604Z 27005KT 18/09 A301 RMK A01 T01770091  RH  057%=      5-min Rain = 0
KCO1 160605Z 27005KT 18/09 A301 RMK A01 T01770091  RH  057%=      5-min Rain = 0
KCO1 160606Z 27005KT 18/09 A301 RMK A01 T01780092  RH  057%=      5-min Rain = 0
KCO1 160607Z 26004KT 18/09 A301 RMK A01 T01780091  RH  057%=      5-min Rain = 0
KCO1 160608Z 26003KT 18/09 A301 RMK A01 T01780091  RH  057%=      5-min Rain = 0
KCO1 160609Z 25003KT 18/09 A301 RMK A01 T01780091  RH  057%=      5-min Rain = 0
KCO1 160610Z 26003KT 18/09 A301 RMK A01 T01780092  RH  057%=      5-min Rain = 0
KCO1 160611Z 26004KT 18/09 A301 RMK A01 T01780092  RH  057%=      5-min Rain = 0
KCO1 160612Z 26004KT 18/09 A301 RMK A01 T01780092  RH  057%=      5-min Rain = 0
KCO1 160613Z 26004KT 18/09 A301 RMK A01 T01780092  RH  057%=      5-min Rain = 0
KCO1 160614Z 26004KT 18/09 A301 RMK A01 T01780092  RH  057%=      5-min Rain = 0
KCO1 160615Z 26004KT 18/09 A301 RMK A01 T01780092  RH  057%=      5-min Rain = 0
KCO1 160616Z 26004KT 18/09 A301 RMK A01 T01780092  RH  057%=      5-min Rain = 0
KCO1 160617Z 25004KT 18/09 A301 RMK A01 T01780092  RH  057%=      5-min Rain = 0
KCO1 160618Z 25003KT 18/09 A301 RMK A01 T01770092  RH  057%=      5-min Rain = 0
KCO1 160619Z 25002KT 18/09 A301 RMK A01 T01770092  RH  057%=      5-min Rain = 0
KCO1 160620Z 22002KT 18/09 A301 RMK A01 T01760091  RH  057%=      5-min Rain = 0
KCO1 160621Z 21002KT 18/09 A301 RMK A01 T01760091  RH  058%=      5-min Rain = 0
KCO1 160622Z 21002KT 18/09 A3011 RMK A01 T01750091  RH  058%=      5-min Rain = 0
KCO1 160623Z 20002KT 17/09 A3011 RMK A01 T01740090  RH  058%=      5-min Rain = 0
KCO1 160624Z 21002KT 17/09 A3011 RMK A01 T01740090  RH  058%=      5-min Rain = 0
KCO1 160625Z 20003KT 17/09 A3011 RMK A01 T01730089  RH  058%=      5-min Rain = 0
KCO1 160626Z 19003KT 17/09 A3011 RMK A01 T01720089  RH  058%=      5-min Rain = 0
KCO1 160627Z 20003KT 17/09 A3011 RMK A01 T01710090  RH  059%=      5-min Rain = 0
KCO1 160628Z 19004KT 17/09 A301 RMK A01 T01710091  RH  059%=      5-min Rain = 0
KCO1 160629Z 18004KT 17/09 A301 RMK A01 T01700090  RH  059%=      5-min Rain = 0
KCO1 160630Z 18004KT 17/09 A301 RMK A01 T01710090  RH  059%=      5-min Rain = 0
KCO1 160631Z 18004KT 17/09 A301 RMK A01 T01690088  RH  059%=      5-min Rain = 0
KCO1 160632Z 18004KT 17/09 A301 RMK A01 T01690088  RH  059%=      5-min Rain = 0
KCO1 160633Z 19005KT 17/09 A3011 RMK A01 T01680088  RH  059%=      5-min Rain = 0
KCO1 160634Z 18005KT 17/09 A3011 RMK A01 T01690089  RH  059%=      5-min Rain = 0
KCO1 160635Z 18004KT 17/09 A3011 RMK A01 T01690089  RH  059%=      5-min Rain = 0
KCO1 160636Z 18004KT 17/09 A3011 RMK A01 T01700089  RH  059%=      5-min Rain = 0
KCO1 160637Z 19005KT 17/09 A3011 RMK A01 T01700090  RH  059%=      5-min Rain = 0
KCO1 160638Z 19004KT 17/09 A3011 RMK A01 T01710090  RH  059%=      5-min Rain = 0
KCO1 160639Z 19004KT 17/09 A3011 RMK A01 T01710090  RH  059%=      5-min Rain = 0
KCO1 160640Z 20005KT 17/09 A3011 RMK A01 T01720091  RH  059%=      5-min Rain = 0
KCO1 160641Z 20005KT 17/09 A3011 RMK A01 T01730091  RH  058%=      5-min Rain = 0
KCO1 160642Z 21003KT 17/09 A3011 RMK A01 T01730090  RH  058%=      5-min Rain = 0
KCO1 160643Z 22003KT 17/09 A3011 RMK A01 T01730089  RH  058%=      5-min Rain = 0
KCO1 160644Z 23004KT 17/09 A3011 RMK A01 T01720088  RH  058%=      5-min Rain = 0
KCO1 160645Z 23004KT 17/09 A3011 RMK A01 T01710088  RH  058%=      5-min Rain = 0
KCO1 160646Z 23004KT 17/09 A3011 RMK A01 T01710088  RH  058%=      5-min Rain = 0
KCO1 160647Z 23004KT 17/09 A3011 RMK A01 T01710089  RH  059%=      5-min Rain = 0
KCO1 160648Z 24003KT 17/09 A3011 RMK A01 T01700088  RH  059%=      5-min Rain = 0
KCO1 160649Z 25002KT 17/09 A3011 RMK A01 T01700089  RH  059%=      5-min Rain = 0
KCO1 160650Z 24004KT 17/09 A3011 RMK A01 T01710089  RH  059%=      5-min Rain = 0
KCO1 160651Z 24003KT 17/09 A3011 RMK A01 T01720090  RH  059%=      5-min Rain = 0
KCO1 160652Z 25002KT 17/09 A3011 RMK A01 T01720090  RH  058%=      5-min Rain = 0
KCO1 160653Z 24003KT 17/09 A3011 RMK A01 T01720089  RH  058%=      5-min Rain = 0
KCO1 160654Z 25004KT 17/09 A3011 RMK A01 T01720090  RH  058%=      5-min Rain = 0
KCO1 160655Z 25005KT 17/09 A3011 RMK A01 T01720090  RH  058%=      5-min Rain = 0
KCO1 160656Z 25005KT 17/09 A3011 RMK A01 T01720090  RH  058%=      5-min Rain = 0
KCO1 160657Z 26004KT 17/09 A3011 RMK A01 T01720090  RH  059%=      5-min Rain = 0
KCO1 160658Z 25005KT 17/09 A3011 RMK A01 T01710091  RH  059%=      5-min Rain = 0
KCO1 160659Z 26005KT 17/09 A3011 RMK A01 T01720092  RH  059%=      5-min Rain = 0
KCO1 160700Z 25005KT 17/09 A301 RMK A01 T01730092  RH  059%=      5-min Rain = 0
KCO1 160701Z 25005KT 17/09 A301 RMK A01 T01740093  RH  059%=      5-min Rain = 0
KCO1 160702Z 25005KT 18/09 A301 RMK A01 T01750093  RH  058%=      5-min Rain = 0
KCO1 160703Z 25005KT 18/09 A301 RMK A01 T01760093  RH  058%=      5-min Rain = 0
KCO1 160704Z 25005KT 18/09 A3011 RMK A01 T01760093  RH  058%=      5-min Rain = 0
KCO1 160705Z 25005KT 18/09 A3011 RMK A01 T01770094  RH  058%=      5-min Rain = 0
KCO1 160706Z 26004KT 18/09 A3011 RMK A01 T01770093  RH  058%=      5-min Rain = 0
KCO1 160707Z 25004KT 18/09 A3011 RMK A01 T01780094  RH  058%=      5-min Rain = 0
KCO1 160708Z 23003KT 18/09 A3011 RMK A01 T01780093  RH  058%=      5-min Rain = 0
KCO1 160709Z 22004KT 18/09 A3011 RMK A01 T01760092  RH  058%=      5-min Rain = 0
KCO1 160710Z 21003KT 18/09 A3011 RMK A01 T01750091  RH  058%=      5-min Rain = 0
KCO1 160711Z 21003KT 17/09 A3011 RMK A01 T01730090  RH  058%=      5-min Rain = 0
KCO1 160712Z 20003KT 17/09 A3011 RMK A01 T01720091  RH  059%=      5-min Rain = 0
KCO1 160713Z 20003KT 17/09 A3011 RMK A01 T01710091  RH  059%=      5-min Rain = 0
KCO1 160714Z 20003KT 17/09 A3011 RMK A01 T01710092  RH  060%=      5-min Rain = 0
KCO1 160715Z 20003KT 17/09 A3011 RMK A01 T01720093  RH  060%=      5-min Rain = 0
KCO1 160716Z 18004KT 17/09 A3011 RMK A01 T01720093  RH  059%=      5-min Rain = 0
KCO1 160717Z 18004KT 17/09 A3011 RMK A01 T01730092  RH  059%=      5-min Rain = 0
KCO1 160718Z 17003KT 17/09 A3011 RMK A01 T01730093  RH  059%=      5-min Rain = 0
KCO1 160719Z 18003KT 17/09 A3011 RMK A01 T01740093  RH  059%=      5-min Rain = 0
KCO1 160720Z 15003KT 17/09 A3011 RMK A01 T01740092  RH  059%=      5-min Rain = 0
KCO1 160721Z 14004KT 17/09 A3011 RMK A01 T01730090  RH  058%=      5-min Rain = 0
KCO1 160722Z 13003KT 17/09 A3011 RMK A01 T01710087  RH  058%=      5-min Rain = 0
KCO1 160723Z 14003KT 17/09 A3011 RMK A01 T01680085  RH  058%=      5-min Rain = 0
KCO1 160724Z 15004KT 17/08 A3011 RMK A01 T01650084  RH  059%=      5-min Rain = 0
KCO1 160725Z 14006KT 16/08 A3011 RMK A01 T01620083  RH  059%=      5-min Rain = 0
KCO1 160726Z 14007KT 16/08 A3011 RMK A01 T01600082  RH  059%=      5-min Rain = 0
KCO1 160727Z 14007KT 16/08 A3011 RMK A01 T01590081  RH  060%=      5-min Rain = 0
KCO1 160728Z 14007KT 16/08 A3011 RMK A01 T01580081  RH  060%=      5-min Rain = 0
KCO1 160729Z 14007KT 16/08 A3011 RMK A01 T01570082  RH  061%=      5-min Rain = 0
KCO1 160730Z 14006KT 16/08 A3011 RMK A01 T01570082  RH  061%=      5-min Rain = 0
KCO1 160731Z 14006KT 16/08 A3011 RMK A01 T01570083  RH  061%=      5-min Rain = 0
KCO1 160732Z 15006KT 16/08 A3011 RMK A01 T01570083  RH  061%=      5-min Rain = 0
KCO1 160733Z 15006KT 16/08 A3011 RMK A01 T01570083  RH  061%=      5-min Rain = 0
KCO1 160734Z 15005KT 16/08 A3011 RMK A01 T01570083  RH  061%=      5-min Rain = 0
KCO1 160735Z 16005KT 16/08 A3012 RMK A01 T01570083  RH  062%=      5-min Rain = 0
KCO1 160736Z 16005KT 16/08 A3012 RMK A01 T01570084  RH  062%=      5-min Rain = 0
KCO1 160737Z 16004KT 16/08 A3012 RMK A01 T01580084  RH  062%=      5-min Rain = 0
KCO1 160738Z 18002KT 16/08 A3012 RMK A01 T01580084  RH  061%=      5-min Rain = 0
KCO1 160739Z 19003KT 16/09 A3012 RMK A01 T01580085  RH  062%=      5-min Rain = 0
KCO1 160740Z 19003KT 16/09 A3012 RMK A01 T01600087  RH  062%=      5-min Rain = 0
KCO1 160741Z 20003KT 16/09 A3012 RMK A01 T01620090  RH  062%=      5-min Rain = 0
KCO1 160742Z 21003KT 16/09 A3012 RMK A01 T01640089  RH  061%=      5-min Rain = 0
KCO1 160743Z 23002KT 17/09 A3012 RMK A01 T01650089  RH  061%=      5-min Rain = 0
KCO1 160744Z 24002KT 17/09 A3012 RMK A01 T01650088  RH  061%=      5-min Rain = 0
KCO1 160745Z 24001KT 17/09 A3012 RMK A01 T01650088  RH  060%=      5-min Rain = 0
KCO1 160746Z 24002KT 17/09 A3012 RMK A01 T01650088  RH  060%=      5-min Rain = 0
KCO1 160747Z 25002KT 17/09 A3012 RMK A01 T01660089  RH  060%=      5-min Rain = 0
KCO1 160748Z 23002KT 17/09 A3012 RMK A01 T01670089  RH  060%=      5-min Rain = 0
KCO1 160749Z 24001KT 17/09 A3012 RMK A01 T01670088  RH  060%=      5-min Rain = 0
KCO1 160750Z 24002KT 17/09 A3012 RMK A01 T01670088  RH  060%=      5-min Rain = 0
KCO1 160751Z 24002KT 17/09 A3012 RMK A01 T01670088  RH  059%=      5-min Rain = 0
KCO1 160752Z 24002KT 17/09 A3012 RMK A01 T01670088  RH  060%=      5-min Rain = 0
KCO1 160753Z 23002KT 17/09 A3012 RMK A01 T01670087  RH  059%=      5-min Rain = 0
KCO1 160754Z 23002KT 17/09 A3012 RMK A01 T01670087  RH  059%=      5-min Rain = 0
KCO1 160755Z 22002KT 17/09 A3012 RMK A01 T01670087  RH  059%=      5-min Rain = 0
KCO1 160756Z 20002KT 17/09 A3012 RMK A01 T01660088  RH  060%=      5-min Rain = 0
KCO1 160757Z 20002KT 17/09 A3012 RMK A01 T01660088  RH  060%=      5-min Rain = 0
KCO1 160758Z 20002KT 17/09 A3012 RMK A01 T01660087  RH  060%=      5-min Rain = 0
KCO1 160759Z 21002KT 17/09 A3012 RMK A01 T01650086  RH  060%=      5-min Rain = 0
KCO1 160800Z 22002KT 16/09 A3012 RMK A01 T01640085  RH  060%=      5-min Rain = 0
KCO1 160801Z 21002KT 16/09 A3012 RMK A01 T01630085  RH  060%=      5-min Rain = 0
KCO1 160802Z 22003KT 16/09 A3012 RMK A01 T01620085  RH  060%=      5-min Rain = 0
KCO1 160803Z 22002KT 16/09 A3012 RMK A01 T01620085  RH  060%=      5-min Rain = 0
KCO1 160804Z 24002KT 16/08 A3012 RMK A01 T01620084  RH  060%=      5-min Rain = 0
KCO1 160805Z 25002KT 16/09 A3011 RMK A01 T01620085  RH  060%=      5-min Rain = 0
KCO1 160806Z 26002KT 16/09 A3011 RMK A01 T01610086  RH  061%=      5-min Rain = 0
KCO1 160807Z 25002KT 16/09 A3011 RMK A01 T01620086  RH  061%=      5-min Rain = 0
KCO1 160808Z 25002KT 16/09 A3011 RMK A01 T01630087  RH  061%=      5-min Rain = 0
KCO1 160809Z 25002KT 16/09 A3011 RMK A01 T01640088  RH  061%=      5-min Rain = 0
KCO1 160810Z 24001KT 16/09 A3011 RMK A01 T01640089  RH  061%=      5-min Rain = 0
KCO1 160811Z 25001KT 17/09 A3011 RMK A01 T01650088  RH  060%=      5-min Rain = 0
KCO1 160812Z 26002KT 17/09 A3012 RMK A01 T01650088  RH  060%=      5-min Rain = 0
KCO1 160813Z 26001KT 17/09 A3012 RMK A01 T01660088  RH  060%=      5-min Rain = 0
KCO1 160814Z 25001KT 17/09 A3012 RMK A01 T01660087  RH  060%=      5-min Rain = 0
KCO1 160815Z 23001KT 17/09 A3012 RMK A01 T01650087  RH  060%=      5-min Rain = 0
KCO1 160816Z 23000KT 17/09 A3012 RMK A01 T01650087  RH  060%=      5-min Rain = 0
KCO1 160817Z 23000KT 17/09 A3012 RMK A01 T01650089  RH  061%=      5-min Rain = 0
KCO1 160818Z 00000KT 17/09 A3012 RMK A01 T01650089  RH  061%=      5-min Rain = 0
KCO1 160819Z 00000KT 17/09 A3012 RMK A01 T01660090  RH  061%=      5-min Rain = 0
KCO1 160820Z 15000KT 17/09 A3012 RMK A01 T01670090  RH  061%=      5-min Rain = 0
KCO1 160821Z 13002KT 17/09 A3012 RMK A01 T01680090  RH  060%=      5-min Rain = 0
KCO1 160822Z 13002KT 17/09 A3012 RMK A01 T01680089  RH  060%=      5-min Rain = 0
KCO1 160823Z 14002KT 17/09 A3012 RMK A01 T01670087  RH  059%=      5-min Rain = 0
KCO1 160824Z 14002KT 17/09 A3012 RMK A01 T01650086  RH  060%=      5-min Rain = 0
KCO1 160825Z 15003KT 16/09 A3012 RMK A01 T01620085  RH  060%=      5-min Rain = 0
KCO1 160826Z 14003KT 16/08 A3012 RMK A01 T01600084  RH  061%=      5-min Rain = 0
KCO1 160827Z 13005KT 16/08 A3012 RMK A01 T01570083  RH  061%=      5-min Rain = 0
KCO1 160828Z 13006KT 16/08 A3012 RMK A01 T01550081  RH  061%=      5-min Rain = 0
KCO1 160829Z 14005KT 15/08 A3012 RMK A01 T01530080  RH  062%=      5-min Rain = 0
KCO1 160830Z 13006KT 15/08 A3012 RMK A01 T01510079  RH  062%=      5-min Rain = 0
KCO1 160831Z 14007KT 15/08 A3012 RMK A01 T01500079  RH  062%=      5-min Rain = 0
KCO1 160832Z 14006KT 15/08 A3012 RMK A01 T01490079  RH  063%=      5-min Rain = 0
KCO1 160833Z 14006KT 15/08 A3012 RMK A01 T01480079  RH  063%=      5-min Rain = 0
KCO1 160834Z 14005KT 15/08 A3012 RMK A01 T01470079  RH  064%=      5-min Rain = 0
KCO1 160835Z 14005KT 15/08 A3012 RMK A01 T01470079  RH  064%=      5-min Rain = 0
KCO1 160836Z 14005KT 15/08 A3012 RMK A01 T01470080  RH  064%=      5-min Rain = 0
KCO1 160837Z 14005KT 15/08 A3012 RMK A01 T01470079  RH  064%=      5-min Rain = 0
KCO1 160838Z 14005KT 15/08 A3012 RMK A01 T01470079  RH  064%=      5-min Rain = 0
KCO1 160839Z 14003KT 15/08 A3012 RMK A01 T01460079  RH  064%=      5-min Rain = 0
KCO1 160840Z 16000KT 15/08 A3012 RMK A01 T01460079  RH  064%=      5-min Rain = 0
KCO1 160841Z 15002KT 15/08 A3012 RMK A01 T01450079  RH  064%=      5-min Rain = 0
KCO1 160842Z 14003KT 15/08 A3012 RMK A01 T01450079  RH  065%=      5-min Rain = 0
KCO1 160843Z 15002KT 15/08 A3012 RMK A01 T01460080  RH  065%=      5-min Rain = 0
KCO1 160844Z 18001KT 15/08 A3012 RMK A01 T01460080  RH  064%=      5-min Rain = 0
KCO1 160845Z 16001KT 15/08 A3012 RMK A01 T01470079  RH  064%=      5-min Rain = 0
KCO1 160846Z 16002KT 15/08 A3012 RMK A01 T01470080  RH  064%=      5-min Rain = 0
KCO1 160847Z 18002KT 15/08 A3012 RMK A01 T01470081  RH  065%=      5-min Rain = 0
KCO1 160848Z 20002KT 15/08 A3012 RMK A01 T01460080  RH  064%=      5-min Rain = 0
KCO1 160849Z 20001KT 15/08 A3012 RMK A01 T01460079  RH  064%=      5-min Rain = 0
KCO1 160850Z 22001KT 15/08 A3012 RMK A01 T01460079  RH  064%=      5-min Rain = 0
KCO1 160851Z 25001KT 15/08 A3012 RMK A01 T01460080  RH  065%=      5-min Rain = 0
KCO1 160852Z 26001KT 15/08 A3012 RMK A01 T01460080  RH  065%=      5-min Rain = 0
KCO1 160853Z 28002KT 15/08 A3012 RMK A01 T01450078  RH  064%=      5-min Rain = 0
KCO1 160854Z 29002KT 15/08 A3012 RMK A01 T01450079  RH  065%=      5-min Rain = 0
KCO1 160855Z 29003KT 14/08 A3012 RMK A01 T01440079  RH  065%=      5-min Rain = 0
KCO1 160856Z 29003KT 15/08 A3012 RMK A01 T01450078  RH  064%=      5-min Rain = 0
KCO1 160857Z 30003KT 14/08 A3012 RMK A01 T01440077  RH  064%=      5-min Rain = 0
KCO1 160858Z 30004KT 14/08 A3012 RMK A01 T01430077  RH  065%=      5-min Rain = 0
KCO1 160859Z 30003KT 14/08 A3012 RMK A01 T01430077  RH  065%=      5-min Rain = 0
KCO1 160900Z 30003KT 14/08 A3012 RMK A01 T01420077  RH  065%=      5-min Rain = 0
KCO1 160901Z 31003KT 14/08 A3012 RMK A01 T01420077  RH  065%=      5-min Rain = 0
KCO1 160902Z 31004KT 14/08 A3012 RMK A01 T01420078  RH  065%=      5-min Rain = 0
KCO1 160903Z 31004KT 14/08 A3012 RMK A01 T01420077  RH  065%=      5-min Rain = 0
KCO1 160904Z 31003KT 14/08 A3012 RMK A01 T01420077  RH  065%=      5-min Rain = 0
KCO1 160905Z 31003KT 14/08 A3012 RMK A01 T01410076  RH  065%=      5-min Rain = 0
KCO1 160906Z 31003KT 14/08 A3012 RMK A01 T01410077  RH  065%=      5-min Rain = 0
KCO1 160907Z 32003KT 14/08 A3012 RMK A01 T01400076  RH  065%=      5-min Rain = 0
KCO1 160908Z 33003KT 14/08 A3012 RMK A01 T01400076  RH  065%=      5-min Rain = 0
KCO1 160909Z 34003KT 14/08 A3012 RMK A01 T01390075  RH  066%=      5-min Rain = 0
KCO1 160910Z 36003KT 14/07 A3012 RMK A01 T01370074  RH  065%=      5-min Rain = 0
KCO1 160911Z 00003KT 14/07 A3012 RMK A01 T01360074  RH  066%=      5-min Rain = 0
KCO1 160912Z 02003KT 14/07 A3012 RMK A01 T01350073  RH  066%=      5-min Rain = 0
KCO1 160913Z 03003KT 13/07 A3012 RMK A01 T01340074  RH  067%=      5-min Rain = 0
KCO1 160914Z 03003KT 13/08 A3012 RMK A01 T01340075  RH  068%=      5-min Rain = 0
KCO1 160915Z 04004KT 13/07 A3012 RMK A01 T01330074  RH  068%=      5-min Rain = 0
KCO1 160916Z 04004KT 13/07 A3012 RMK A01 T01330074  RH  068%=      5-min Rain = 0
KCO1 160917Z 05005KT 13/07 A3012 RMK A01 T01320074  RH  068%=      5-min Rain = 0
KCO1 160918Z 06005KT 13/08 A3012 RMK A01 T01320075  RH  068%=      5-min Rain = 0
KCO1 160919Z 06005KT 13/08 A3012 RMK A01 T01320076  RH  069%=      5-min Rain = 0
KCO1 160920Z 06005KT 13/08 A3012 RMK A01 T01330076  RH  069%=      5-min Rain = 0
KCO1 160921Z 06005KT 13/08 A3012 RMK A01 T01320075  RH  068%=      5-min Rain = 0
KCO1 160922Z 06005KT 13/08 A3012 RMK A01 T01330075  RH  068%=      5-min Rain = 0
KCO1 160923Z 06005KT 13/08 A3012 RMK A01 T01320075  RH  068%=      5-min Rain = 0
KCO1 160924Z 06004KT 13/08 A3013 RMK A01 T01320075  RH  069%=      5-min Rain = 0
KCO1 160925Z 08004KT 13/07 A3013 RMK A01 T01310074  RH  068%=      5-min Rain = 0
KCO1 160926Z 13005KT 13/07 A3013 RMK A01 T01300073  RH  068%=      5-min Rain = 0
KCO1 160927Z 13005KT 13/07 A3013 RMK A01 T01290072  RH  068%=      5-min Rain = 0
KCO1 160928Z 11004KT 13/07 A3013 RMK A01 T01280071  RH  068%=      5-min Rain = 0
KCO1 160929Z 08003KT 13/07 A3013 RMK A01 T01270071  RH  069%=      5-min Rain = 0
KCO1 160930Z 07003KT 13/07 A3013 RMK A01 T01270072  RH  069%=      5-min Rain = 0
KCO1 160931Z 05002KT 13/07 A3013 RMK A01 T01270073  RH  070%=      5-min Rain = 0
KCO1 160932Z 05002KT 13/07 A3013 RMK A01 T01270074  RH  070%=      5-min Rain = 0
KCO1 160933Z 06000KT 13/08 A3013 RMK A01 T01280075  RH  070%=      5-min Rain = 0
KCO1 160934Z 18001KT 13/08 A3013 RMK A01 T01280075  RH  070%=      5-min Rain = 0
KCO1 160935Z 21002KT 13/08 A3013 RMK A01 T01290076  RH  070%=      5-min Rain = 0
KCO1 160936Z 21001KT 13/08 A3013 RMK A01 T01310077  RH  069%=      5-min Rain = 0
KCO1 160937Z 20000KT 13/08 A3013 RMK A01 T01310075  RH  069%=      5-min Rain = 0
KCO1 160938Z 26000KT 13/08 A3013 RMK A01 T01310075  RH  069%=      5-min Rain = 0
KCO1 160939Z 00000KT 13/08 A3013 RMK A01 T01310075  RH  069%=      5-min Rain = 0
KCO1 160940Z 00000KT 13/07 A3013 RMK A01 T01320074  RH  068%=      5-min Rain = 0
KCO1 160941Z 00000KT 13/07 A3013 RMK A01 T01320073  RH  068%=      5-min Rain = 0
KCO1 160942Z 00000KT 13/07 A3013 RMK A01 T01310074  RH  068%=      5-min Rain = 0
KCO1 160943Z 00000KT 13/08 A3013 RMK A01 T01310075  RH  069%=      5-min Rain = 0
KCO1 160944Z 00000KT 13/08 A3013 RMK A01 T01310075  RH  069%=      5-min Rain = 0
KCO1 160945Z 00000KT 13/08 A3013 RMK A01 T01310075  RH  068%=      5-min Rain = 0
KCO1 160946Z 35001KT 13/07 A3013 RMK A01 T01320074  RH  068%=      5-min Rain = 0
KCO1 160947Z 18002KT 13/07 A3013 RMK A01 T01320074  RH  068%=      5-min Rain = 0
KCO1 160948Z 19002KT 13/07 A3013 RMK A01 T01320074  RH  068%=      5-min Rain = 0
KCO1 160949Z 19001KT 13/07 A3013 RMK A01 T01310073  RH  068%=      5-min Rain = 0
KCO1 160950Z 18001KT 13/07 A3013 RMK A01 T01310072  RH  068%=      5-min Rain = 0
KCO1 160951Z 18001KT 13/07 A3013 RMK A01 T01290072  RH  068%=      5-min Rain = 0
KCO1 160952Z 18000KT 13/07 A3013 RMK A01 T01290072  RH  068%=      5-min Rain = 0
KCO1 160953Z 18000KT 13/07 A3013 RMK A01 T01280071  RH  068%=      5-min Rain = 0
KCO1 160954Z 00000KT 13/07 A3013 RMK A01 T01280072  RH  069%=      5-min Rain = 0
KCO1 160955Z 00000KT 13/07 A3013 RMK A01 T01270071  RH  069%=      5-min Rain = 0
KCO1 160956Z 18000KT 13/07 A3013 RMK A01 T01270070  RH  069%=      5-min Rain = 0
KCO1 160957Z 18001KT 13/07 A3013 RMK A01 T01260070  RH  069%=      5-min Rain = 0
KCO1 160958Z 02001KT 13/07 A3013 RMK A01 T01260072  RH  069%=      5-min Rain = 0
KCO1 160959Z 01002KT 13/07 A3013 RMK A01 T01270074  RH  070%=      5-min Rain = 0
KCO1 161000Z 01001KT 13/08 A3013 RMK A01 T01280075  RH  070%=      5-min Rain = 0
KCO1 161001Z 00001KT 13/07 A3013 RMK A01 T01290073  RH  069%=      5-min Rain = 0
KCO1 161002Z 00001KT 13/07 A3013 RMK A01 T01300072  RH  068%=      5-min Rain = 0
KCO1 161003Z 00000KT 13/07 A3013 RMK A01 T01300074  RH  069%=      5-min Rain = 0
KCO1 161004Z 36001KT 13/08 A3013 RMK A01 T01310075  RH  069%=      5-min Rain = 0
KCO1 161005Z 34001KT 13/08 A3013 RMK A01 T01320075  RH  068%=      5-min Rain = 0
KCO1 161006Z 34001KT 13/08 A3013 RMK A01 T01330075  RH  068%=      5-min Rain = 0
KCO1 161007Z 34002KT 13/07 A3013 RMK A01 T01340073  RH  067%=      5-min Rain = 0
KCO1 161008Z 34001KT 13/08 A3013 RMK A01 T01340075  RH  068%=      5-min Rain = 0
KCO1 161009Z 34002KT 13/08 A3013 RMK A01 T01340076  RH  068%=      5-min Rain = 0
KCO1 161010Z 34002KT 13/08 A3013 RMK A01 T01340077  RH  069%=      5-min Rain = 0
KCO1 161011Z 34002KT 13/08 A3013 RMK A01 T01340076  RH  068%=      5-min Rain = 0
KCO1 161012Z 34003KT 13/08 A3013 RMK A01 T01340076  RH  068%=      5-min Rain = 0
KCO1 161013Z 33003KT 14/08 A3013 RMK A01 T01350081  RH  070%=      5-min Rain = 0
KCO1 161014Z 33003KT 14/08 A3013 RMK A01 T01360080  RH  069%=      5-min Rain = 0
KCO1 161015Z 33003KT 14/08 A3013 RMK A01 T01370076  RH  067%=      5-min Rain = 0
KCO1 161016Z 33002KT 14/08 A3013 RMK A01 T01370075  RH  066%=      5-min Rain = 0
KCO1 161017Z 32002KT 14/07 A3013 RMK A01 T01360074  RH  066%=      5-min Rain = 0
KCO1 161018Z 32002KT 14/07 A3013 RMK A01 T01350073  RH  066%=      5-min Rain = 0
KCO1 161019Z 31002KT 13/07 A3013 RMK A01 T01330071  RH  066%=      5-min Rain = 0
KCO1 161020Z 30002KT 13/07 A3013 RMK A01 T01320073  RH  067%=      5-min Rain = 0
KCO1 161021Z 30002KT 13/07 A3013 RMK A01 T01320074  RH  068%=      5-min Rain = 0
KCO1 161022Z 30002KT 13/08 A3013 RMK A01 T01330075  RH  068%=      5-min Rain = 0
KCO1 161023Z 29002KT 13/07 A3013 RMK A01 T01340073  RH  067%=      5-min Rain = 0
KCO1 161024Z 26002KT 13/07 A3013 RMK A01 T01330073  RH  067%=      5-min Rain = 0
KCO1 161025Z 26002KT 13/07 A3013 RMK A01 T01330074  RH  067%=      5-min Rain = 0
KCO1 161026Z 26002KT 13/07 A3013 RMK A01 T01330074  RH  067%=      5-min Rain = 0
KCO1 161027Z 25002KT 14/07 A3013 RMK A01 T01350074  RH  067%=      5-min Rain = 0
KCO1 161028Z 24002KT 14/07 A3013 RMK A01 T01350074  RH  067%=      5-min Rain = 0
KCO1 161029Z 24002KT 14/07 A3013 RMK A01 T01350073  RH  066%=      5-min Rain = 0
KCO1 161030Z 24002KT 13/07 A3013 RMK A01 T01330072  RH  067%=      5-min Rain = 0
KCO1 161031Z 23003KT 13/07 A3013 RMK A01 T01320072  RH  067%=      5-min Rain = 0
KCO1 161032Z 23003KT 13/07 A3013 RMK A01 T01310073  RH  068%=      5-min Rain = 0
KCO1 161033Z 24002KT 13/07 A3013 RMK A01 T01310074  RH  068%=      5-min Rain = 0
KCO1 161034Z 23002KT 13/08 A3013 RMK A01 T01320076  RH  069%=      5-min Rain = 0
KCO1 161035Z 20004KT 13/08 A3013 RMK A01 T01330076  RH  068%=      5-min Rain = 0
KCO1 161036Z 19005KT 13/08 A3013 RMK A01 T01330075  RH  068%=      5-min Rain = 0
KCO1 161037Z 19006KT 13/07 A3013 RMK A01 T01330072  RH  066%=      5-min Rain = 0
KCO1 161038Z 19006KT 13/07 A3013 RMK A01 T01320072  RH  067%=      5-min Rain = 0
KCO1 161039Z 19005KT 13/07 A3013 RMK A01 T01320074  RH  068%=      5-min Rain = 0
KCO1 161040Z 20004KT 13/07 A3012 RMK A01 T01320073  RH  067%=      5-min Rain = 0
KCO1 161041Z 20003KT 13/07 A3012 RMK A01 T01320072  RH  067%=      5-min Rain = 0
KCO1 161042Z 18004KT 13/07 A3013 RMK A01 T01320072  RH  067%=      5-min Rain = 0
KCO1 161043Z 18004KT 13/07 A3013 RMK A01 T01320072  RH  067%=      5-min Rain = 0
KCO1 161044Z 20003KT 13/07 A3013 RMK A01 T01320072  RH  067%=      5-min Rain = 0
KCO1 161045Z 19003KT 13/07 A3013 RMK A01 T01320074  RH  068%=      5-min Rain = 0
KCO1 161046Z 20004KT 13/08 A3013 RMK A01 T01330075  RH  068%=      5-min Rain = 0
KCO1 161047Z 20004KT 13/08 A3013 RMK A01 T01330075  RH  067%=      5-min Rain = 0
KCO1 161048Z 20005KT 13/08 A3013 RMK A01 T01340077  RH  068%=      5-min Rain = 0
KCO1 161049Z 19006KT 14/08 A3013 RMK A01 T01360079  RH  068%=      5-min Rain = 0
KCO1 161050Z 20006KT 14/08 A3013 RMK A01 T01370078  RH  067%=      5-min Rain = 0
KCO1 161051Z 21005KT 14/08 A3013 RMK A01 T01380079  RH  068%=      5-min Rain = 0
KCO1 161052Z 20004KT 14/08 A3013 RMK A01 T01390080  RH  067%=      5-min Rain = 0
KCO1 161053Z 19005KT 14/08 A3013 RMK A01 T01400078  RH  066%=      5-min Rain = 0
KCO1 161054Z 19006KT 14/08 A3013 RMK A01 T01400078  RH  066%=      5-min Rain = 0
KCO1 161055Z 19006KT 14/08 A3013 RMK A01 T01390079  RH  067%=      5-min Rain = 0
KCO1 161056Z 19006KT 14/08 A3013 RMK A01 T01390079  RH  067%=      5-min Rain = 0
KCO1 161057Z 19006KT 14/08 A3013 RMK A01 T01400080  RH  067%=      5-min Rain = 0
KCO1 161058Z 19006KT 14/08 A3013 RMK A01 T01410081  RH  067%=      5-min Rain = 0
KCO1 161059Z 18005KT 14/08 A3013 RMK A01 T01420081  RH  067%=      5-min Rain = 0
KCO1 161100Z 19004KT 14/08 A3013 RMK A01 T01430080  RH  066%=      5-min Rain = 0
KCO1 161101Z 19002KT 14/08 A3013 RMK A01 T01430080  RH  066%=      5-min Rain = 0
KCO1 161102Z 20003KT 14/08 A3013 RMK A01 T01420080  RH  066%=      5-min Rain = 0
KCO1 161103Z 20004KT 14/08 A3013 RMK A01 T01420079  RH  066%=      5-min Rain = 0
KCO1 161104Z 20004KT 14/08 A3013 RMK A01 T01420080  RH  066%=      5-min Rain = 0
KCO1 161105Z 20003KT 14/08 A3013 RMK A01 T01440080  RH  066%=      5-min Rain = 0
KCO1 161106Z 21004KT 14/08 A3013 RMK A01 T01440080  RH  065%=      5-min Rain = 0
KCO1 161107Z 21004KT 15/08 A3013 RMK A01 T01460083  RH  066%=      5-min Rain = 0
KCO1 161108Z 20004KT 15/08 A3013 RMK A01 T01480083  RH  065%=      5-min Rain = 0
KCO1 161109Z 20003KT 15/08 A3013 RMK A01 T01490082  RH  064%=      5-min Rain = 0
KCO1 161110Z 21003KT 15/08 A3013 RMK A01 T01490081  RH  064%=      5-min Rain = 0
KCO1 161111Z 20003KT 15/08 A3013 RMK A01 T01480081  RH  064%=      5-min Rain = 0
KCO1 161112Z 20004KT 15/08 A3013 RMK A01 T01460080  RH  064%=      5-min Rain = 0
KCO1 161113Z 20004KT 15/08 A3013 RMK A01 T01460081  RH  065%=      5-min Rain = 0
KCO1 161114Z 20003KT 15/08 A3013 RMK A01 T01450080  RH  065%=      5-min Rain = 0
KCO1 161115Z 20004KT 15/08 A3013 RMK A01 T01450080  RH  065%=      5-min Rain = 0
KCO1 161116Z 19003KT 15/08 A3013 RMK A01 T01450080  RH  065%=      5-min Rain = 0
KCO1 161117Z 19003KT 14/08 A3013 RMK A01 T01440080  RH  065%=      5-min Rain = 0
KCO1 161118Z 19003KT 15/08 A3013 RMK A01 T01450081  RH  065%=      5-min Rain = 0
KCO1 161119Z 19004KT 15/08 A3013 RMK A01 T01460081  RH  065%=      5-min Rain = 0
KCO1 161120Z 19004KT 15/08 A3013 RMK A01 T01460081  RH  065%=      5-min Rain = 0
KCO1 161121Z 19004KT 15/08 A3013 RMK A01 T01460081  RH  065%=      5-min Rain = 0
KCO1 161122Z 19004KT 15/08 A3013 RMK A01 T01460081  RH  065%=      5-min Rain = 0
KCO1 161123Z 19004KT 15/08 A3013 RMK A01 T01450080  RH  065%=      5-min Rain = 0
KCO1 161124Z 20004KT 15/08 A3013 RMK A01 T01450079  RH  065%=      5-min Rain = 0
KCO1 161125Z 19004KT 14/08 A3013 RMK A01 T01440079  RH  065%=      5-min Rain = 0
KCO1 161126Z 20004KT 14/08 A3013 RMK A01 T01430079  RH  065%=      5-min Rain = 0
KCO1 161127Z 20005KT 14/08 A3013 RMK A01 T01440079  RH  065%=      5-min Rain = 0
KCO1 161128Z 20005KT 14/08 A3013 RMK A01 T01440080  RH  065%=      5-min Rain = 0
KCO1 161129Z 20005KT 14/08 A3013 RMK A01 T01440079  RH  065%=      5-min Rain = 0
KCO1 161130Z 20005KT 14/08 A3013 RMK A01 T01440079  RH  065%=      5-min Rain = 0
KCO1 161131Z 21005KT 14/08 A3013 RMK A01 T01440080  RH  065%=      5-min Rain = 0
KCO1 161132Z 21005KT 14/08 A3013 RMK A01 T01440080  RH  065%=      5-min Rain = 0
KCO1 161133Z 21006KT 15/08 A3013 RMK A01 T01450080  RH  065%=      5-min Rain = 0
KCO1 161134Z 21007KT 15/08 A3013 RMK A01 T01460080  RH  065%=      5-min Rain = 0
KCO1 161135Z 22007KT 15/08 A3013 RMK A01 T01460080  RH  064%=      5-min Rain = 0
KCO1 161136Z 22007KT 15/08 A3014 RMK A01 T01460079  RH  064%=      5-min Rain = 0
KCO1 161137Z 22006KT 15/08 A3014 RMK A01 T01450079  RH  064%=      5-min Rain = 0
KCO1 161138Z 22006KT 15/08 A3014 RMK A01 T01450079  RH  065%=      5-min Rain = 0
KCO1 161139Z 22006KT 14/08 A3013 RMK A01 T01440079  RH  065%=      5-min Rain = 0
KCO1 161140Z 22006KT 14/08 A3013 RMK A01 T01440079  RH  065%=      5-min Rain = 0
KCO1 161141Z 22006KT 14/08 A3013 RMK A01 T01440079  RH  065%=      5-min Rain = 0
KCO1 161142Z 21007KT 14/08 A3013 RMK A01 T01440079  RH  065%=      5-min Rain = 0
KCO1 161143Z 21006KT 14/08 A3013 RMK A01 T01440079  RH  065%=      5-min Rain = 0
KCO1 161144Z 22006KT 14/08 A3014 RMK A01 T01440079  RH  065%=      5-min Rain = 0
KCO1 161145Z 22005KT 14/08 A3014 RMK A01 T01440079  RH  065%=      5-min Rain = 0
KCO1 161146Z 22006KT 15/08 A3014 RMK A01 T01450079  RH  065%=      5-min Rain = 0
KCO1 161147Z 21006KT 15/08 A3014 RMK A01 T01450079  RH  064%=      5-min Rain = 0
KCO1 161148Z 21006KT 15/08 A3014 RMK A01 T01450079  RH  064%=      5-min Rain = 0
KCO1 161149Z 21006KT 15/08 A3014 RMK A01 T01450079  RH  064%=      5-min Rain = 0
KCO1 161150Z 21005KT 15/08 A3014 RMK A01 T01450079  RH  064%=      5-min Rain = 0
KCO1 161151Z 21005KT 15/08 A3014 RMK A01 T01460079  RH  064%=      5-min Rain = 0
KCO1 161152Z 21005KT 15/08 A3014 RMK A01 T01460079  RH  064%=      5-min Rain = 0
KCO1 161153Z 21005KT 15/08 A3014 RMK A01 T01460079  RH  064%=      5-min Rain = 0
KCO1 161154Z 22005KT 15/08 A3014 RMK A01 T01460079  RH  064%=      5-min Rain = 0
KCO1 161155Z 22005KT 15/08 A3014 RMK A01 T01460079  RH  064%=      5-min Rain = 0
KCO1 161156Z 22005KT 15/08 A3014 RMK A01 T01460079  RH  064%=      5-min Rain = 0
KCO1 161157Z 22005KT 15/08 A3014 RMK A01 T01470080  RH  064%=      5-min Rain = 0
KCO1 161158Z 22005KT 15/08 A3014 RMK A01 T01470080  RH  064%=      5-min Rain = 0
KCO1 161159Z 22004KT 15/08 A3014 RMK A01 T01470079  RH  064%=      5-min Rain = 0
KCO1 161200Z 21004KT 15/08 A3014 RMK A01 T01470079  RH  064%=      5-min Rain = 0
KCO1 161201Z 21004KT 15/08 A3014 RMK A01 T01470079  RH  064%=      5-min Rain = 0
KCO1 161202Z 21003KT 15/08 A3014 RMK A01 T01470080  RH  064%=      5-min Rain = 0
KCO1 161203Z 21002KT 15/08 A3014 RMK A01 T01470080  RH  064%=      5-min Rain = 0
KCO1 161204Z 22002KT 15/08 A3014 RMK A01 T01470080  RH  064%=      5-min Rain = 0
KCO1 161205Z 23002KT 15/08 A3014 RMK A01 T01470080  RH  064%=      5-min Rain = 0
KCO1 161206Z 23002KT 15/08 A3014 RMK A01 T01460080  RH  064%=      5-min Rain = 0
KCO1 161207Z 22002KT 15/08 A3014 RMK A01 T01460079  RH  064%=      5-min Rain = 0
KCO1 161208Z 22002KT 15/08 A3015 RMK A01 T01460080  RH  064%=      5-min Rain = 0
KCO1 161209Z 23003KT 15/08 A3015 RMK A01 T01460080  RH  065%=      5-min Rain = 0
KCO1 161210Z 23003KT 15/08 A3015 RMK A01 T01460080  RH  065%=      5-min Rain = 0
KCO1 161211Z 23003KT 15/08 A3015 RMK A01 T01460080  RH  064%=      5-min Rain = 0
KCO1 161212Z 24002KT 15/08 A3015 RMK A01 T01460079  RH  064%=      5-min Rain = 0
KCO1 161213Z 25002KT 15/08 A3015 RMK A01 T01460079  RH  064%=      5-min Rain = 0
KCO1 161214Z 25002KT 15/08 A3015 RMK A01 T01460079  RH  064%=      5-min Rain = 0
KCO1 161215Z 25002KT 15/08 A3015 RMK A01 T01460079  RH  064%=      5-min Rain = 0
KCO1 161216Z 26002KT 15/08 A3015 RMK A01 T01460079  RH  064%=      5-min Rain = 0
KCO1 161217Z 25002KT 15/08 A3015 RMK A01 T01460079  RH  064%=      5-min Rain = 0
KCO1 161218Z 26002KT 15/08 A3015 RMK A01 T01460079  RH  064%=      5-min Rain = 0
KCO1 161219Z 30002KT 15/08 A3015 RMK A01 T01460079  RH  064%=      5-min Rain = 0
KCO1 161220Z 33002KT 15/08 A3016 RMK A01 T01460080  RH  064%=      5-min Rain = 0
KCO1 161221Z 33002KT 15/08 A3016 RMK A01 T01460079  RH  064%=      5-min Rain = 0
KCO1 161222Z 32002KT 15/08 A3016 RMK A01 T01450079  RH  064%=      5-min Rain = 0
KCO1 161223Z 34003KT 14/08 A3016 RMK A01 T01440079  RH  065%=      5-min Rain = 0
KCO1 161224Z 01010G15KT 14/08 A3017 RMK A01 T01440079  RH  065%=      5-min Rain = 0
KCO1 161225Z 01011KT 14/08 A3017 RMK A01 T01430079  RH  065%=      5-min Rain = 0
KCO1 161226Z 00009KT 14/08 A3018 RMK A01 T01430080  RH  066%=      5-min Rain = 0
KCO1 161227Z 01008KT 14/08 A3018 RMK A01 T01430080  RH  066%=      5-min Rain = 0
KCO1 161228Z 01008KT 14/08 A3018 RMK A01 T01430081  RH  066%=      5-min Rain = 0
KCO1 161229Z 02007KT 14/08 A3018 RMK A01 T01440082  RH  067%=      5-min Rain = 0
KCO1 161230Z 03007KT 15/08 A3018 RMK A01 T01450083  RH  066%=      5-min Rain = 0
KCO1 161231Z 03006KT 15/08 A3018 RMK A01 T01450083  RH  066%=      5-min Rain = 0
KCO1 161232Z 03006KT 15/08 A3018 RMK A01 T01460084  RH  066%=      5-min Rain = 0
KCO1 161233Z 03006KT 15/08 A3018 RMK A01 T01460084  RH  066%=      5-min Rain = 0
KCO1 161234Z 03006KT 15/08 A3018 RMK A01 T01460083  RH  066%=      5-min Rain = 0
KCO1 161235Z 03007KT 15/08 A3018 RMK A01 T01450083  RH  066%=      5-min Rain = 0
KCO1 161236Z 03007KT 15/08 A3018 RMK A01 T01450084  RH  067%=      5-min Rain = 0
KCO1 161237Z 02007KT 14/08 A3018 RMK A01 T01440084  RH  067%=      5-min Rain = 0
KCO1 161238Z 02007KT 14/09 A3018 RMK A01 T01440085  RH  067%=      5-min Rain = 0
KCO1 161239Z 02007KT 15/09 A3018 RMK A01 T01450085  RH  067%=      5-min Rain = 0
KCO1 161240Z 02007KT 15/09 A3018 RMK A01 T01450086  RH  067%=      5-min Rain = 0
KCO1 161241Z 02006KT 15/09 A3018 RMK A01 T01450085  RH  067%=      5-min Rain = 0
KCO1 161242Z 03006KT 15/09 A3019 RMK A01 T01450085  RH  067%=      5-min Rain = 0
KCO1 161243Z 03006KT 15/09 A3019 RMK A01 T01450085  RH  067%=      5-min Rain = 0
KCO1 161244Z 03006KT 14/09 A3019 RMK A01 T01440085  RH  067%=      5-min Rain = 0
KCO1 161245Z 03006KT 14/09 A3018 RMK A01 T01440085  RH  067%=      5-min Rain = 0
KCO1 161246Z 03006KT 14/08 A3018 RMK A01 T01430084  RH  068%=      5-min Rain = 0
KCO1 161247Z 03006KT 14/09 A3018 RMK A01 T01430085  RH  068%=      5-min Rain = 0
KCO1 161248Z 03006KT 14/09 A3018 RMK A01 T01430085  RH  068%=      5-min Rain = 0
KCO1 161249Z 03006KT 14/09 A3018 RMK A01 T01430085  RH  068%=      5-min Rain = 0
KCO1 161250Z 03006KT 14/09 A3018 RMK A01 T01430085  RH  068%=      5-min Rain = 0
KCO1 161251Z 03007KT 14/09 A3018 RMK A01 T01430086  RH  068%=      5-min Rain = 0
KCO1 161252Z 03007KT 14/09 A3018 RMK A01 T01430086  RH  068%=      5-min Rain = 0
KCO1 161253Z 03006KT 14/09 A3018 RMK A01 T01440086  RH  068%=      5-min Rain = 0
KCO1 161254Z 02006KT 15/09 A3018 RMK A01 T01450085  RH  067%=      5-min Rain = 0
KCO1 161255Z 02006KT 15/08 A3019 RMK A01 T01450084  RH  067%=      5-min Rain = 0
KCO1 161256Z 03006KT 15/08 A3018 RMK A01 T01460084  RH  066%=      5-min Rain = 0
KCO1 161257Z 04005KT 15/08 A3018 RMK A01 T01470083  RH  066%=      5-min Rain = 0
KCO1 161258Z 04005KT 15/08 A3018 RMK A01 T01470083  RH  066%=      5-min Rain = 0
KCO1 161259Z 04007KT 15/08 A3018 RMK A01 T01470083  RH  066%=      5-min Rain = 0
KCO1 161300Z 04007KT 15/08 A3018 RMK A01 T01470082  RH  065%=      5-min Rain = 0
KCO1 161301Z 03007KT 15/08 A3019 RMK A01 T01470082  RH  065%=      5-min Rain = 0
KCO1 161302Z 04007KT 15/08 A3019 RMK A01 T01480082  RH  065%=      5-min Rain = 0
KCO1 161303Z 03007KT 15/08 A3019 RMK A01 T01480082  RH  064%=      5-min Rain = 0
KCO1 161304Z 03007KT 15/08 A3019 RMK A01 T01480081  RH  064%=      5-min Rain = 0
KCO1 161305Z 03006KT 15/08 A3018 RMK A01 T01480081  RH  064%=      5-min Rain = 0
KCO1 161306Z 03007KT 15/08 A3018 RMK A01 T01480081  RH  064%=      5-min Rain = 0
KCO1 161307Z 04006KT 15/08 A3018 RMK A01 T01480081  RH  064%=      5-min Rain = 0
KCO1 161308Z 03007KT 15/08 A3018 RMK A01 T01480080  RH  064%=      5-min Rain = 0
KCO1 161309Z 03007KT 15/08 A3019 RMK A01 T01480080  RH  064%=      5-min Rain = 0
KCO1 161310Z 04007KT 15/08 A3019 RMK A01 T01480080  RH  064%=      5-min Rain = 0
KCO1 161311Z 04006KT 15/08 A3019 RMK A01 T01480080  RH  064%=      5-min Rain = 0
KCO1 161312Z 04006KT 15/08 A3019 RMK A01 T01470079  RH  064%=      5-min Rain = 0
KCO1 161313Z 04006KT 15/08 A3019 RMK A01 T01470079  RH  064%=      5-min Rain = 0
KCO1 161314Z 04005KT 15/08 A3019 RMK A01 T01470079  RH  064%=      5-min Rain = 0
KCO1 161315Z 04005KT 15/08 A3019 RMK A01 T01460078  RH  063%=      5-min Rain = 0
KCO1 161316Z 04005KT 15/08 A3019 RMK A01 T01460077  RH  063%=      5-min Rain = 0
KCO1 161317Z 04005KT 15/08 A3019 RMK A01 T01470076  RH  062%=      5-min Rain = 0
KCO1 161318Z 04005KT 15/08 A3019 RMK A01 T01470075  RH  062%=      5-min Rain = 0
KCO1 161319Z 04005KT 15/07 A3019 RMK A01 T01470074  RH  062%=      5-min Rain = 0
KCO1 161320Z 04005KT 15/07 A3019 RMK A01 T01470074  RH  061%=      5-min Rain = 0
KCO1 161321Z 04005KT 15/07 A3019 RMK A01 T01470074  RH  061%=      5-min Rain = 0
KCO1 161322Z 04006KT 15/07 A3019 RMK A01 T01470073  RH  061%=      5-min Rain = 0
KCO1 161323Z 04005KT 15/07 A3019 RMK A01 T01470073  RH  061%=      5-min Rain = 0
KCO1 161324Z 04005KT 15/07 A3019 RMK A01 T01470073  RH  061%=      5-min Rain = 0
KCO1 161325Z 04004KT 15/07 A3019 RMK A01 T01460072  RH  061%=      5-min Rain = 0
KCO1 161326Z 04005KT 15/07 A3019 RMK A01 T01460072  RH  061%=      5-min Rain = 0
KCO1 161327Z 04005KT 15/07 A3019 RMK A01 T01460071  RH  061%=      5-min Rain = 0
KCO1 161328Z 04005KT 15/07 A3019 RMK A01 T01460071  RH  061%=      5-min Rain = 0
KCO1 161329Z 03005KT 15/07 A3019 RMK A01 T01460070  RH  061%=      5-min Rain = 0
KCO1 161330Z 03005KT 15/07 A3019 RMK A01 T01450070  RH  061%=      5-min Rain = 0
KCO1 161331Z 03005KT 15/07 A3019 RMK A01 T01460071  RH  061%=      5-min Rain = 0
KCO1 161332Z 02005KT 15/07 A3019 RMK A01 T01460070  RH  061%=      5-min Rain = 0
KCO1 161333Z 02005KT 15/07 A3019 RMK A01 T01450070  RH  061%=      5-min Rain = 0
KCO1 161334Z 02005KT 15/07 A302 RMK A01 T01460070  RH  060%=      5-min Rain = 0
KCO1 161335Z 02005KT 15/07 A302 RMK A01 T01450070  RH  061%=      5-min Rain = 0
KCO1 161336Z 02004KT 15/07 A302 RMK A01 T01450070  RH  061%=      5-min Rain = 0
KCO1 161337Z 02005KT 14/07 A302 RMK A01 T01440070  RH  061%=      5-min Rain = 0
KCO1 161338Z 02005KT 14/07 A302 RMK A01 T01440069  RH  061%=      5-min Rain = 0
KCO1 161339Z 02004KT 14/07 A302 RMK A01 T01440070  RH  061%=      5-min Rain = 0
KCO1 161340Z 02004KT 14/07 A302 RMK A01 T01430069  RH  061%=      5-min Rain = 0
KCO1 161341Z 02004KT 14/07 A302 RMK A01 T01420069  RH  062%=      5-min Rain = 0
KCO1 161342Z 02004KT 14/07 A302 RMK A01 T01410069  RH  062%=      5-min Rain = 0
KCO1 161343Z 03004KT 14/07 A3019 RMK A01 T01410069  RH  062%=      5-min Rain = 0
KCO1 161344Z 03004KT 14/07 A3019 RMK A01 T01400069  RH  062%=      5-min Rain = 0
KCO1 161345Z 02004KT 14/07 A3019 RMK A01 T01400069  RH  062%=      5-min Rain = 0
KCO1 161346Z 02004KT 14/07 A302 RMK A01 T01390069  RH  063%=      5-min Rain = 0
KCO1 161347Z 02004KT 14/07 A302 RMK A01 T01390069  RH  063%=      5-min Rain = 0
KCO1 161348Z 01004KT 14/07 A302 RMK A01 T01380069  RH  063%=      5-min Rain = 0
KCO1 161349Z 01004KT 14/07 A302 RMK A01 T01380069  RH  063%=      5-min Rain = 0
KCO1 161350Z 02004KT 14/07 A302 RMK A01 T01370069  RH  063%=      5-min Rain = 0
KCO1 161351Z 02004KT 14/07 A302 RMK A01 T01370069  RH  064%=      5-min Rain = 0
KCO1 161352Z 01004KT 14/07 A302 RMK A01 T01360069  RH  064%=      5-min Rain = 0
KCO1 161353Z 02004KT 14/07 A302 RMK A01 T01360069  RH  064%=      5-min Rain = 0
KCO1 161354Z 01004KT 14/07 A302 RMK A01 T01350069  RH  064%=      5-min Rain = 0
KCO1 161355Z 01004KT 14/07 A302 RMK A01 T01350069  RH  064%=      5-min Rain = 0
KCO1 161356Z 01004KT 14/07 A302 RMK A01 T01360070  RH  064%=      5-min Rain = 0
KCO1 161357Z 01004KT 14/07 A302 RMK A01 T01350069  RH  064%=      5-min Rain = 0
KCO1 161358Z 00004KT 14/07 A302 RMK A01 T01350069  RH  064%=      5-min Rain = 0
KCO1 161359Z 00005KT 14/07 A302 RMK A01 T01350069  RH  064%=      5-min Rain = 0
KCO1 161400Z 00005KT 14/07 A302 RMK A01 T01350069  RH  064%=      5-min Rain = 0
KCO1 161401Z 01006KT 14/07 A3021 RMK A01 T01350068  RH  064%=      5-min Rain = 0
KCO1 161402Z 01007KT 14/07 A3021 RMK A01 T01350067  RH  064%=      5-min Rain = 0
KCO1 161403Z 01006KT 14/07 A3021 RMK A01 T01350066  RH  063%=      5-min Rain = 0
KCO1 161404Z 01006KT 14/07 A3021 RMK A01 T01370066  RH  062%=      5-min Rain = 0
KCO1 161405Z 01006KT 14/07 A3021 RMK A01 T01370066  RH  062%=      5-min Rain = 0
KCO1 161406Z 02006KT 14/07 A3021 RMK A01 T01370066  RH  062%=      5-min Rain = 0
KCO1 161407Z 02006KT 14/07 A3021 RMK A01 T01380065  RH  062%=      5-min Rain = 0
KCO1 161408Z 02006KT 14/07 A3021 RMK A01 T01380065  RH  061%=      5-min Rain = 0
KCO1 161409Z 02007KT 14/06 A3021 RMK A01 T01390064  RH  060%=      5-min Rain = 0
KCO1 161410Z 02009KT 14/06 A3021 RMK A01 T01400061  RH  059%=      5-min Rain = 0
KCO1 161411Z 02008KT 14/06 A3021 RMK A01 T01430059  RH  057%=      5-min Rain = 0
KCO1 161412Z 03009KT 14/06 A3021 RMK A01 T01440058  RH  056%=      5-min Rain = 0
KCO1 161413Z 03009KT 15/06 A3021 RMK A01 T01450055  RH  055%=      5-min Rain = 0
KCO1 161414Z 03009KT 15/05 A3021 RMK A01 T01460054  RH  054%=      5-min Rain = 0
KCO1 161415Z 03010KT 15/05 A3021 RMK A01 T01480053  RH  053%=      5-min Rain = 0
KCO1 161416Z 03009KT 15/05 A3021 RMK A01 T01490051  RH  052%=      5-min Rain = 0
KCO1 161417Z 03010KT 15/05 A3021 RMK A01 T01490050  RH  051%=      5-min Rain = 0
KCO1 161418Z 03010KT 15/05 A3021 RMK A01 T01500050  RH  051%=      5-min Rain = 0
KCO1 161419Z 03010KT 15/05 A3022 RMK A01 T01500048  RH  051%=      5-min Rain = 0
KCO1 161420Z 03010KT 15/05 A3022 RMK A01 T01510048  RH  050%=      5-min Rain = 0
KCO1 161421Z 03011KT 15/05 A3022 RMK A01 T01510047  RH  050%=      5-min Rain = 0
KCO1 161422Z 03009KT 15/05 A3022 RMK A01 T01520047  RH  050%=      5-min Rain = 0
KCO1 161423Z 03010KT 15/05 A3022 RMK A01 T01520047  RH  049%=      5-min Rain = 0
KCO1 161424Z 03009KT 15/05 A3022 RMK A01 T01530047  RH  049%=      5-min Rain = 0
KCO1 161425Z 03009KT 15/05 A3022 RMK A01 T01530047  RH  049%=      5-min Rain = 0
KCO1 161426Z 03009KT 15/05 A3022 RMK A01 T01540047  RH  049%=      5-min Rain = 0
KCO1 161427Z 03009KT 15/05 A3022 RMK A01 T01540046  RH  049%=      5-min Rain = 0
KCO1 161428Z 03010KT 15/05 A3022 RMK A01 T01540046  RH  048%=      5-min Rain = 0
KCO1 161429Z 03009KT 16/05 A3022 RMK A01 T01550046  RH  048%=      5-min Rain = 0
KCO1 161430Z 03010KT 16/05 A3023 RMK A01 T01550046  RH  048%=      5-min Rain = 0
KCO1 161431Z 03010KT 16/05 A3023 RMK A01 T01560045  RH  048%=      5-min Rain = 0
KCO1 161432Z 02009KT 16/05 A3023 RMK A01 T01560045  RH  048%=      5-min Rain = 0
KCO1 161433Z 03011KT 16/04 A3023 RMK A01 T01570044  RH  047%=      5-min Rain = 0
KCO1 161434Z 03011KT 16/04 A3023 RMK A01 T01570043  RH  047%=      5-min Rain = 0
KCO1 161435Z 03011KT 16/04 A3023 RMK A01 T01580042  RH  046%=      5-min Rain = 0
KCO1 161436Z 03013KT 16/04 A3023 RMK A01 T01580041  RH  046%=      5-min Rain = 0
KCO1 161437Z 03013KT 16/04 A3023 RMK A01 T01580038  RH  045%=      5-min Rain = 0
KCO1 161438Z 03013KT 16/04 A3023 RMK A01 T01580039  RH  045%=      5-min Rain = 0
KCO1 161439Z 03014KT 16/04 A3023 RMK A01 T01590037  RH  044%=      5-min Rain = 0
KCO1 161440Z 03012KT 16/04 A3023 RMK A01 T01590036  RH  044%=      5-min Rain = 0
KCO1 161441Z 03011KT 16/04 A3023 RMK A01 T01590036  RH  044%=      5-min Rain = 0
KCO1 161442Z 03013KT 16/04 A3023 RMK A01 T01590036  RH  044%=      5-min Rain = 0
KCO1 161443Z 03015KT 16/04 A3023 RMK A01 T01590035  RH  043%=      5-min Rain = 0
KCO1 161444Z 03014KT 16/03 A3023 RMK A01 T01590033  RH  043%=      5-min Rain = 0
KCO1 161445Z 04014KT 16/03 A3024 RMK A01 T01580032  RH  043%=      5-min Rain = 0
KCO1 161446Z 04016KT 16/03 A3024 RMK A01 T01580031  RH  043%=      5-min Rain = 0
KCO1 161447Z 04016KT 16/03 A3024 RMK A01 T01580030  RH  042%=      5-min Rain = 0
KCO1 161448Z 03013KT 16/03 A3024 RMK A01 T01570029  RH  042%=      5-min Rain = 0
KCO1 161449Z 04016KT 16/03 A3024 RMK A01 T01570028  RH  042%=      5-min Rain = 0
KCO1 161450Z 03020G25KT 16/02 A3024 RMK A01 T01550023  RH  041%=      5-min Rain = 0
KCO1 161451Z 03022KT 15/02 A3024 RMK A01 T01530018  RH  040%=      5-min Rain = 0
KCO1 161452Z 04018KT 15/02 A3025 RMK A01 T01500015  RH  040%=      5-min Rain = 0
KCO1 161453Z 03016KT 15/01 A3025 RMK A01 T01490014  RH  040%=      5-min Rain = 0
KCO1 161454Z 04019G24KT 15/01 A3025 RMK A01 T01480014  RH  040%=      5-min Rain = 0
KCO1 161455Z 04019G24KT 15/01 A3025 RMK A01 T01470012  RH  040%=      5-min Rain = 0
KCO1 161456Z 04018KT 15/01 A3025 RMK A01 T01460011  RH  040%=      5-min Rain = 0
KCO1 161457Z 04017KT 15/01 A3025 RMK A01 T01460012  RH  040%=      5-min Rain = 0
KCO1 161458Z 03018KT 15/01 A3025 RMK A01 T01450011  RH  040%=      5-min Rain = 0
KCO1 161459Z 03019KT 15/01 A3025 RMK A01 T01450010  RH  040%=      5-min Rain = 0
KCO1 161500Z 03014KT 14/01 A3025 RMK A01 T01440010  RH  040%=      5-min Rain = 0
KCO1 161501Z 03014KT 14/01 A3025 RMK A01 T01440010  RH  040%=      5-min Rain = 0
KCO1 161502Z 04015G20KT 14/01 A3025 RMK A01 T01440011  RH  040%=      5-min Rain = 0
KCO1 161503Z 04016KT 14/01 A3025 RMK A01 T01440010  RH  040%=      5-min Rain = 0
KCO1 161504Z 03017KT 14/01 A3025 RMK A01 T01440009  RH  040%=      5-min Rain = 0
KCO1 161505Z 03016G21KT 14/01 A3025 RMK A01 T01430008  RH  040%=      5-min Rain = 0
KCO1 161506Z 03016KT 14/01 A3025 RMK A01 T01420008  RH  040%=      5-min Rain = 0
KCO1 161507Z 03015KT 14/01 A3026 RMK A01 T01420008  RH  040%=      5-min Rain = 0
KCO1 161508Z 03015G20KT 14/01 A3026 RMK A01 T01420008  RH  040%=      5-min Rain = 0
KCO1 161509Z 03014KT 14/01 A3026 RMK A01 T01420008  RH  040%=      5-min Rain = 0
KCO1 161510Z 03017KT 14/01 A3026 RMK A01 T01420007  RH  040%=      5-min Rain = 0
KCO1 161511Z 03018KT 14/01 A3026 RMK A01 T01420006  RH  039%=      5-min Rain = 0
KCO1 161512Z 04015KT 14/00 A3026 RMK A01 T01410004  RH  039%=      5-min Rain = 0
KCO1 161513Z 04016KT 14/00 A3026 RMK A01 T01410004  RH  039%=      5-min Rain = 0
KCO1 161514Z 04015KT 14/00 A3026 RMK A01 T01410003  RH  039%=      5-min Rain = 0
KCO1 161515Z 04014KT 14/00 A3027 RMK A01 T01400003  RH  039%=      5-min Rain = 0
KCO1 161516Z 04017KT 14/00 A3027 RMK A01 T01400002  RH  039%=      5-min Rain = 0
KCO1 161517Z 04018KT 14/00 A3027 RMK A01 T01400001  RH  038%=      5-min Rain = 0
KCO1 161518Z 03017KT 14/00 A3027 RMK A01 T01390000  RH  038%=      5-min Rain = 0
KCO1 161519Z 03013KT 14/M00 A3027 RMK A01 T01391001  RH  038%=      5-min Rain = 0
KCO1 161520Z 03014KT 14/M00 A3027 RMK A01 T01391001  RH  038%=      5-min Rain = 0
KCO1 161521Z 03014KT 14/M00 A3027 RMK A01 T01391002  RH  038%=      5-min Rain = 0
KCO1 161522Z 03014KT 14/M00 A3027 RMK A01 T01391002  RH  038%=      5-min Rain = 0
KCO1 161523Z 04014KT 14/M00 A3027 RMK A01 T01391002  RH  038%=      5-min Rain = 0
KCO1 161524Z 03013KT 14/M00 A3027 RMK A01 T01391002  RH  038%=      5-min Rain = 0
KCO1 161525Z 03014KT 14/M00 A3027 RMK A01 T01391002  RH  038%=      5-min Rain = 0
KCO1 161526Z 03014KT 14/M00 A3027 RMK A01 T01391002  RH  038%=      5-min Rain = 0
KCO1 161527Z 04016KT 14/M00 A3027 RMK A01 T01391003  RH  038%=      5-min Rain = 0
KCO1 161528Z 03016KT 14/M00 A3027 RMK A01 T01391003  RH  038%=      5-min Rain = 0
KCO1 161529Z 03015KT 14/M00 A3027 RMK A01 T01391002  RH  038%=      5-min Rain = 0
KCO1 161530Z 04014KT 14/M00 A3028 RMK A01 T01391003  RH  038%=      5-min Rain = 0
KCO1 161531Z 04016KT 14/M00 A3028 RMK A01 T01391003  RH  038%=      5-min Rain = 0
KCO1 161532Z 04016KT 14/M00 A3028 RMK A01 T01401004  RH  037%=      5-min Rain = 0
KCO1 161533Z 03017KT 14/M00 A3028 RMK A01 T01391004  RH  037%=      5-min Rain = 0
KCO1 161534Z 03015KT 14/M01 A3028 RMK A01 T01391005  RH  037%=      5-min Rain = 0
KCO1 161535Z 04017KT 14/M01 A3028 RMK A01 T01391005  RH  037%=      5-min Rain = 0
KCO1 161536Z 04015KT 14/M01 A3028 RMK A01 T01391005  RH  037%=      5-min Rain = 0
KCO1 161537Z 03013KT 14/M01 A3028 RMK A01 T01391005  RH  037%=      5-min Rain = 0
KCO1 161538Z 04010KT 14/M00 A3028 RMK A01 T01391004  RH  037%=      5-min Rain = 0
KCO1 161539Z 03013KT 14/M00 A3028 RMK A01 T01401004  RH  037%=      5-min Rain = 0
KCO1 161540Z 03014KT 14/M01 A3028 RMK A01 T01401005  RH  037%=      5-min Rain = 0
KCO1 161541Z 03013G19KT 14/M00 A3028 RMK A01 T01401004  RH  037%=      5-min Rain = 0
KCO1 161542Z 03014KT 14/M01 A3028 RMK A01 T01401005  RH  037%=      5-min Rain = 0
KCO1 161543Z 03015KT 14/M01 A3028 RMK A01 T01391007  RH  037%=      5-min Rain = 0
KCO1 161544Z 03015KT 14/M01 A3028 RMK A01 T01381007  RH  037%=      5-min Rain = 0
KCO1 161545Z 03013KT 14/M01 A3028 RMK A01 T01381007  RH  037%=      5-min Rain = 0
KCO1 161546Z 03012KT 14/M01 A3028 RMK A01 T01391007  RH  037%=      5-min Rain = 0
KCO1 161547Z 03014KT 14/M01 A3028 RMK A01 T01401007  RH  037%=      5-min Rain = 0
KCO1 161548Z 03014KT 14/M01 A3028 RMK A01 T01401007  RH  036%=      5-min Rain = 0
KCO1 161549Z 03015KT 14/M01 A3028 RMK A01 T01401007  RH  036%=      5-min Rain = 0
KCO1 161550Z 04014KT 14/M01 A3029 RMK A01 T01401008  RH  036%=      5-min Rain = 0
KCO1 161551Z 03014KT 14/M01 A3028 RMK A01 T01391009  RH  036%=      5-min Rain = 0
KCO1 161552Z 03014KT 14/M01 A3029 RMK A01 T01381010  RH  036%=      5-min Rain = 0
KCO1 161553Z 03013KT 14/M01 A3029 RMK A01 T01381011  RH  036%=      5-min Rain = 0
KCO1 161554Z 03011KT 14/M01 A3028 RMK A01 T01381010  RH  036%=      5-min Rain = 0
KCO1 161555Z 03014KT 14/M01 A3029 RMK A01 T01391010  RH  036%=      5-min Rain = 0
KCO1 161556Z 03014KT 14/M01 A3029 RMK A01 T01381011  RH  036%=      5-min Rain = 0
KCO1 161557Z 03013KT 14/M01 A3029 RMK A01 T01381011  RH  036%=      5-min Rain = 0
KCO1 161558Z 02011KT 14/M01 A3029 RMK A01 T01381010  RH  036%=      5-min Rain = 0
KCO1 161559Z 03013KT 14/M01 A3029 RMK A01 T01401010  RH  036%=      5-min Rain = 0
KCO1 161600Z 03012KT 14/M01 A3029 RMK A01 T01401011  RH  035%=      5-min Rain = 0
KCO1 161601Z 03011KT 14/M01 A3029 RMK A01 T01401011  RH  035%=      5-min Rain = 0
KCO1 161602Z 03011KT 14/M01 A3029 RMK A01 T01401011  RH  035%=      5-min Rain = 0
KCO1 161603Z 03014KT 14/M01 A3029 RMK A01 T01411011  RH  035%=      5-min Rain = 0
KCO1 161604Z 02011G17KT 14/M01 A3029 RMK A01 T01411011  RH  035%=      5-min Rain = 0
KCO1 161605Z 03013KT 14/M01 A3029 RMK A01 T01411011  RH  035%=      5-min Rain = 0
KCO1 161606Z 03013KT 14/M01 A3029 RMK A01 T01411011  RH  035%=      5-min Rain = 0
KCO1 161607Z 03013KT 14/M01 A303 RMK A01 T01411013  RH  035%=      5-min Rain = 0
KCO1 161608Z 04012KT 14/M01 A303 RMK A01 T01401013  RH  035%=      5-min Rain = 0
KCO1 161609Z 03011KT 14/M01 A303 RMK A01 T01401012  RH  035%=      5-min Rain = 0
KCO1 161610Z 03010KT 14/M01 A303 RMK A01 T01401013  RH  035%=      5-min Rain = 0
KCO1 161611Z 03010KT 14/M01 A303 RMK A01 T01411013  RH  035%=      5-min Rain = 0
KCO1 161612Z 03010KT 14/M01 A303 RMK A01 T01421012  RH  035%=      5-min Rain = 0
KCO1 161613Z 04012KT 14/M01 A303 RMK A01 T01421012  RH  035%=      5-min Rain = 0
KCO1 161614Z 03013KT 14/M01 A303 RMK A01 T01421012  RH  035%=      5-min Rain = 0
KCO1 161615Z 03011KT 14/M01 A303 RMK A01 T01421012  RH  034%=      5-min Rain = 0
KCO1 161616Z 04010KT 14/M01 A303 RMK A01 T01421012  RH  035%=      5-min Rain = 0
KCO1 161617Z 04012KT 14/M01 A303 RMK A01 T01421012  RH  035%=      5-min Rain = 0
KCO1 161618Z 03014KT 14/M01 A303 RMK A01 T01421013  RH  034%=      5-min Rain = 0
KCO1 161619Z 03011KT 14/M02 A303 RMK A01 T01411015  RH  034%=      5-min Rain = 0
KCO1 161620Z 02012KT 14/M01 A303 RMK A01 T01411014  RH  034%=      5-min Rain = 0
KCO1 161621Z 03011KT 14/M01 A303 RMK A01 T01411013  RH  034%=      5-min Rain = 0
KCO1 161622Z 03013KT 14/M01 A303 RMK A01 T01421012  RH  034%=      5-min Rain = 0
KCO1 161623Z 03013KT 14/M01 A303 RMK A01 T01431013  RH  034%=      5-min Rain = 0
KCO1 161624Z 03012KT 14/M01 A303 RMK A01 T01431013  RH  034%=      5-min Rain = 0
KCO1 161625Z 03012KT 14/M01 A303 RMK A01 T01431013  RH  034%=      5-min Rain = 0
KCO1 161626Z 04012KT 14/M01 A303 RMK A01 T01431014  RH  034%=      5-min Rain = 0
KCO1 161627Z 03012KT 14/M01 A303 RMK A01 T01431013  RH  034%=      5-min Rain = 0
KCO1 161628Z 03011KT 14/M01 A303 RMK A01 T01431013  RH  034%=      5-min Rain = 0
KCO1 161629Z 03014KT 14/M01 A3031 RMK A01 T01431014  RH  034%=      5-min Rain = 0
KCO1 161630Z 04012KT 14/M02 A3031 RMK A01 T01411016  RH  034%=      5-min Rain = 0
KCO1 161631Z 04009KT 14/M02 A3031 RMK A01 T01401016  RH  034%=      5-min Rain = 0
KCO1 161632Z 03012KT 14/M02 A3031 RMK A01 T01401015  RH  034%=      5-min Rain = 0
KCO1 161633Z 04012KT 14/M02 A3031 RMK A01 T01401016  RH  034%=      5-min Rain = 0
KCO1 161634Z 04012KT 14/M02 A3031 RMK A01 T01401016  RH  034%=      5-min Rain = 0
KCO1 161635Z 04011KT 14/M02 A3031 RMK A01 T01401017  RH  034%=      5-min Rain = 0
KCO1 161636Z 05011KT 14/M02 A3031 RMK A01 T01401015  RH  034%=      5-min Rain = 0
KCO1 161637Z 05014KT 14/M02 A3031 RMK A01 T01421015  RH  034%=      5-min Rain = 0
KCO1 161638Z 06012KT 14/M02 A3031 RMK A01 T01421016  RH  034%=      5-min Rain = 0
KCO1 161639Z 06012KT 14/M02 A3031 RMK A01 T01421016  RH  034%=      5-min Rain = 0
KCO1 161640Z 06013KT 14/M02 A3031 RMK A01 T01421017  RH  034%=      5-min Rain = 0
KCO1 161641Z 04013KT 14/M02 A3031 RMK A01 T01421017  RH  033%=      5-min Rain = 0
KCO1 161642Z 03013KT 14/M02 A3031 RMK A01 T01431017  RH  033%=      5-min Rain = 0
KCO1 161643Z 04013KT 14/M02 A3031 RMK A01 T01421017  RH  033%=      5-min Rain = 0
KCO1 161644Z 04014KT 14/M02 A3031 RMK A01 T01421017  RH  033%=      5-min Rain = 0
KCO1 161645Z 03012KT 14/M02 A3031 RMK A01 T01421017  RH  033%=      5-min Rain = 0
KCO1 161646Z 03010KT 14/M02 A3031 RMK A01 T01421018  RH  033%=      5-min Rain = 0
KCO1 161647Z 03008KT 14/M02 A3031 RMK A01 T01421017  RH  033%=      5-min Rain = 0
KCO1 161648Z 04014KT 14/M02 A3032 RMK A01 T01431016  RH  033%=      5-min Rain = 0
KCO1 161649Z 04011KT 14/M02 A3032 RMK A01 T01431019  RH  033%=      5-min Rain = 0
KCO1 161650Z 03009KT 14/M02 A3032 RMK A01 T01421019  RH  033%=      5-min Rain = 0
KCO1 161651Z 04010KT 14/M02 A3032 RMK A01 T01411019  RH  033%=      5-min Rain = 0
KCO1 161652Z 04014KT 14/M02 A3032 RMK A01 T01411019  RH  033%=      5-min Rain = 0
KCO1 161653Z 04015KT 14/M02 A3032 RMK A01 T01411020  RH  033%=      5-min Rain = 0
KCO1 161654Z 04013KT 14/M02 A3032 RMK A01 T01391022  RH  033%=      5-min Rain = 0
KCO1 161655Z 04013KT 14/M02 A3032 RMK A01 T01381022  RH  033%=      5-min Rain = 0
KCO1 161656Z 04014KT 14/M02 A3032 RMK A01 T01391021  RH  033%=      5-min Rain = 0
KCO1 161657Z 05014KT 14/M02 A3032 RMK A01 T01391022  RH  033%=      5-min Rain = 0
KCO1 161658Z 04011KT 14/M02 A3032 RMK A01 T01391022  RH  033%=      5-min Rain = 0
KCO1 161659Z 03010KT 14/M02 A3032 RMK A01 T01401021  RH  033%=      5-min Rain = 0
KCO1 161700Z 04010KT 14/M02 A3032 RMK A01 T01391023  RH  032%=      5-min Rain = 0
KCO1 161701Z 04009KT 14/M02 A3032 RMK A01 T01401021  RH  033%=      5-min Rain = 0
KCO1 161702Z 03012KT 14/M02 A3032 RMK A01 T01441018  RH  033%=      5-min Rain = 0
KCO1 161703Z 03013KT 14/M02 A3032 RMK A01 T01431022  RH  032%=      5-min Rain = 0
KCO1 161704Z 04013KT 14/M02 A3032 RMK A01 T01401023  RH  032%=      5-min Rain = 0
KCO1 161705Z 04012KT 14/M02 A3032 RMK A01 T01411021  RH  033%=      5-min Rain = 0
KCO1 161706Z 04013KT 14/M02 A3032 RMK A01 T01401024  RH  032%=      5-min Rain = 0
KCO1 161707Z 03012KT 14/M02 A3032 RMK A01 T01391023  RH  032%=      5-min Rain = 0
KCO1 161708Z 03013KT 14/M02 A3032 RMK A01 T01411022  RH  032%=      5-min Rain = 0
KCO1 161709Z 05013KT 14/M02 A3032 RMK A01 T01421023  RH  032%=      5-min Rain = 0
KCO1 161710Z 04009KT 14/M02 A3032 RMK A01 T01411024  RH  032%=      5-min Rain = 0
KCO1 161711Z 03009KT 14/M02 A3032 RMK A01 T01411024  RH  032%=      5-min Rain = 0
KCO1 161712Z 03012KT 14/M02 A3032 RMK A01 T01421022  RH  032%=      5-min Rain = 0
KCO1 161713Z 04010KT 14/M02 A3032 RMK A01 T01441020  RH  032%=      5-min Rain = 0
KCO1 161714Z 03010KT 15/M02 A3032 RMK A01 T01451022  RH  032%=      5-min Rain = 0
KCO1 161715Z 03011KT 15/M02 A3032 RMK A01 T01451022  RH  032%=      5-min Rain = 0
KCO1 161716Z 03010KT 14/M02 A3032 RMK A01 T01431024  RH  032%=      5-min Rain = 0
KCO1 161717Z 04009KT 14/M02 A3032 RMK A01 T01411024  RH  032%=      5-min Rain = 0
KCO1 161718Z 05010KT 14/M02 A3032 RMK A01 T01411023  RH  032%=      5-min Rain = 0
KCO1 161719Z 05010KT 14/M02 A3032 RMK A01 T01421023  RH  032%=      5-min Rain = 0
KCO1 161720Z 04011KT 14/M02 A3032 RMK A01 T01421023  RH  032%=      5-min Rain = 0
KCO1 161721Z 05008KT 14/M02 A3032 RMK A01 T01421024  RH  032%=      5-min Rain = 0
KCO1 161722Z 05010KT 14/M02 A3032 RMK A01 T01411024  RH  032%=      5-min Rain = 0
KCO1 161723Z 05011KT 14/M02 A3032 RMK A01 T01421022  RH  032%=      5-min Rain = 0
KCO1 161724Z 05012KT 14/M02 A3032 RMK A01 T01431024  RH  031%=      5-min Rain = 0
KCO1 161725Z 05010KT 14/M03 A3032 RMK A01 T01411026  RH  031%=      5-min Rain = 0
KCO1 161726Z 05011KT 14/M03 A3032 RMK A01 T01401026  RH  032%=      5-min Rain = 0
KCO1 161727Z 05010KT 14/M03 A3032 RMK A01 T01401025  RH  032%=      5-min Rain = 0
KCO1 161728Z 04008KT 14/M03 A3031 RMK A01 T01401025  RH  032%=      5-min Rain = 0
KCO1 161729Z 06009KT 14/M03 A3031 RMK A01 T01411025  RH  032%=      5-min Rain = 0
KCO1 161730Z 05013KT 14/M03 A3031 RMK A01 T01411025  RH  032%=      5-min Rain = 0
KCO1 161731Z 05012KT 14/M03 A3031 RMK A01 T01411026  RH  031%=      5-min Rain = 0
KCO1 161732Z 04012KT 14/M03 A3031 RMK A01 T01401026  RH  032%=      5-min Rain = 0
KCO1 161733Z 03010KT 14/M03 A3031 RMK A01 T01391027  RH  032%=      5-min Rain = 0
KCO1 161734Z 04012KT 14/M03 A3031 RMK A01 T01381027  RH  032%=      5-min Rain = 0
KCO1 161735Z 05012KT 14/M03 A3031 RMK A01 T01391025  RH  032%=      5-min Rain = 0
KCO1 161736Z 05013KT 14/M03 A3031 RMK A01 T01411026  RH  032%=      5-min Rain = 0
KCO1 161737Z 05010KT 14/M03 A3031 RMK A01 T01401028  RH  031%=      5-min Rain = 0
KCO1 161738Z 05007KT 14/M03 A3031 RMK A01 T01391028  RH  032%=      5-min Rain = 0
KCO1 161739Z 04007KT 14/M03 A3031 RMK A01 T01401027  RH  031%=      5-min Rain = 0
KCO1 161740Z 02011KT 14/M03 A3031 RMK A01 T01411026  RH  031%=      5-min Rain = 0
KCO1 161741Z 04013KT 14/M03 A3031 RMK A01 T01411027  RH  031%=      5-min Rain = 0
KCO1 161742Z 04009KT 14/M03 A3031 RMK A01 T01411027  RH  031%=      5-min Rain = 0
KCO1 161743Z 05008KT 14/M03 A3031 RMK A01 T01421025  RH  032%=      5-min Rain = 0
KCO1 161744Z 05009KT 15/M03 A3031 RMK A01 T01451025  RH  031%=      5-min Rain = 0
KCO1 161745Z 05009KT 14/M03 A3031 RMK A01 T01441027  RH  031%=      5-min Rain = 0
KCO1 161746Z 04010KT 14/M03 A3031 RMK A01 T01431027  RH  031%=      5-min Rain = 0
KCO1 161747Z 06011KT 14/M03 A3031 RMK A01 T01441025  RH  031%=      5-min Rain = 0
KCO1 161748Z 06010KT 14/M03 A3031 RMK A01 T01441025  RH  031%=      5-min Rain = 0
KCO1 161749Z 04010KT 14/M03 A3031 RMK A01 T01441025  RH  031%=      5-min Rain = 0
KCO1 161750Z 04010KT 15/M03 A3031 RMK A01 T01451026  RH  030%=      5-min Rain = 0
KCO1 161751Z 03008KT 14/M03 A3031 RMK A01 T01441027  RH  030%=      5-min Rain = 0
KCO1 161752Z 05009KT 15/M03 A3031 RMK A01 T01451026  RH  031%=      5-min Rain = 0
KCO1 161753Z 05010KT 15/M03 A3031 RMK A01 T01471025  RH  031%=      5-min Rain = 0
KCO1 161754Z 04010KT 15/M03 A303 RMK A01 T01491025  RH  030%=      5-min Rain = 0
KCO1 161755Z 05011KT 15/M03 A303 RMK A01 T01501026  RH  030%=      5-min Rain = 0
KCO1 161756Z 05012KT 15/M03 A303 RMK A01 T01481027  RH  030%=      5-min Rain = 0
KCO1 161757Z 06012KT 15/M03 A303 RMK A01 T01481027  RH  030%=      5-min Rain = 0
KCO1 161758Z 06012KT 15/M03 A303 RMK A01 T01471027  RH  030%=      5-min Rain = 0
KCO1 161759Z 06010KT 15/M03 A303 RMK A01 T01461028  RH  030%=      5-min Rain = 0
KCO1 161800Z 07008G13KT 15/M03 A303 RMK A01 T01461026  RH  030%=      5-min Rain = 0
KCO1 161801Z 06013KT 15/M03 A303 RMK A01 T01481027  RH  030%=      5-min Rain = 0
KCO1 161802Z 05012KT 15/M03 A303 RMK A01 T01461029  RH  030%=      5-min Rain = 0
KCO1 161803Z 04011KT 14/M03 A303 RMK A01 T01431030  RH  030%=      5-min Rain = 0
KCO1 161804Z 04008KT 14/M03 A303 RMK A01 T01421030  RH  030%=      5-min Rain = 0
KCO1 161805Z 04012KT 14/M03 A303 RMK A01 T01411028  RH  031%=      5-min Rain = 0
KCO1 161806Z 03012KT 14/M03 A303 RMK A01 T01421029  RH  031%=      5-min Rain = 0
KCO1 161807Z 03012KT 14/M03 A303 RMK A01 T01411030  RH  031%=      5-min Rain = 0
KCO1 161808Z 03011KT 14/M03 A303 RMK A01 T01411030  RH  030%=      5-min Rain = 0
KCO1 161809Z 03011KT 14/M03 A303 RMK A01 T01401031  RH  031%=      5-min Rain = 0
KCO1 161810Z 03009KT 14/M03 A303 RMK A01 T01391031  RH  031%=      5-min Rain = 0
KCO1 161811Z 04008KT 14/M03 A303 RMK A01 T01391029  RH  031%=      5-min Rain = 0
KCO1 161812Z 03008KT 14/M03 A303 RMK A01 T01411028  RH  031%=      5-min Rain = 0
KCO1 161813Z 01011KT 14/M03 A303 RMK A01 T01431027  RH  031%=      5-min Rain = 0
KCO1 161814Z 36009KT 14/M03 A303 RMK A01 T01441028  RH  030%=      5-min Rain = 0
KCO1 161815Z 35008KT 14/M03 A303 RMK A01 T01441029  RH  030%=      5-min Rain = 0
KCO1 161816Z 36008KT 14/M03 A303 RMK A01 T01441028  RH  030%=      5-min Rain = 0
KCO1 161817Z 02013KT 15/M03 A303 RMK A01 T01461026  RH  030%=      5-min Rain = 0
KCO1 161818Z 04010KT 15/M03 A303 RMK A01 T01481027  RH  030%=      5-min Rain = 0
KCO1 161819Z 01009KT 15/M03 A303 RMK A01 T01491027  RH  030%=      5-min Rain = 0
KCO1 161820Z 00009KT 15/M03 A303 RMK A01 T01491028  RH  029%=      5-min Rain = 0
KCO1 161821Z 02010KT 15/M03 A303 RMK A01 T01481028  RH  029%=      5-min Rain = 0
KCO1 161822Z 01011KT 15/M03 A303 RMK A01 T01481028  RH  029%=      5-min Rain = 0
KCO1 161823Z 01009KT 15/M03 A303 RMK A01 T01481029  RH  029%=      5-min Rain = 0
KCO1 161824Z 02008KT 15/M03 A303 RMK A01 T01481029  RH  029%=      5-min Rain = 0
KCO1 161825Z 03007KT 15/M03 A303 RMK A01 T01461030  RH  029%=      5-min Rain = 0
KCO1 161826Z 01007KT 15/M03 A3029 RMK A01 T01481028  RH  030%=      5-min Rain = 0
KCO1 161827Z 01010KT 15/M03 A3029 RMK A01 T01501027  RH  029%=      5-min Rain = 0
KCO1 161828Z 02008KT 15/M03 A3029 RMK A01 T01501029  RH  029%=      5-min Rain = 0
KCO1 161829Z 04010KT 15/M03 A3029 RMK A01 T01511027  RH  029%=      5-min Rain = 0
KCO1 161830Z 04011KT 15/M03 A3029 RMK A01 T01511030  RH  029%=      5-min Rain = 0
KCO1 161831Z 03012KT 15/M03 A3029 RMK A01 T01491031  RH  029%=      5-min Rain = 0
KCO1 161832Z 04010KT 15/M03 A3029 RMK A01 T01471032  RH  029%=      5-min Rain = 0
KCO1 161833Z 04014KT 15/M03 A3029 RMK A01 T01461031  RH  029%=      5-min Rain = 0
KCO1 161834Z 03011KT 15/M03 A3029 RMK A01 T01461031  RH  029%=      5-min Rain = 0
KCO1 161835Z 04011KT 15/M03 A3029 RMK A01 T01471031  RH  029%=      5-min Rain = 0
KCO1 161836Z 04008KT 15/M03 A3029 RMK A01 T01471032  RH  029%=      5-min Rain = 0
KCO1 161837Z 03011KT 15/M03 A3029 RMK A01 T01461032  RH  029%=      5-min Rain = 0
KCO1 161838Z 03009KT 15/M03 A3029 RMK A01 T01461033  RH  029%=      5-min Rain = 0
KCO1 161839Z 02010KT 15/M03 A3029 RMK A01 T01461032  RH  029%=      5-min Rain = 0
KCO1 161840Z 02010KT 15/M03 A3029 RMK A01 T01451034  RH  029%=      5-min Rain = 0
KCO1 161841Z 01010KT 14/M03 A3029 RMK A01 T01431033  RH  029%=      5-min Rain = 0
KCO1 161842Z 03010KT 14/M03 A3029 RMK A01 T01441032  RH  029%=      5-min Rain = 0
KCO1 161843Z 04010KT 15/M03 A3029 RMK A01 T01451032  RH  029%=      5-min Rain = 0
KCO1 161844Z 03008KT 14/M03 A3029 RMK A01 T01441034  RH  029%=      5-min Rain = 0
KCO1 161845Z 04011KT 14/M03 A3029 RMK A01 T01431032  RH  030%=      5-min Rain = 0
KCO1 161846Z 03011KT 15/M03 A3029 RMK A01 T01451031  RH  029%=      5-min Rain = 0
KCO1 161847Z 04010KT 15/M03 A3029 RMK A01 T01481029  RH  029%=      5-min Rain = 0
KCO1 161848Z 04009KT 15/M03 A3029 RMK A01 T01511030  RH  029%=      5-min Rain = 0
KCO1 161849Z 05009KT 15/M03 A3028 RMK A01 T01511031  RH  028%=      5-min Rain = 0
KCO1 161850Z 06006KT 15/M03 A3028 RMK A01 T01511032  RH  028%=      5-min Rain = 0
KCO1 161851Z 04008KT 15/M03 A3028 RMK A01 T01511031  RH  028%=      5-min Rain = 0
KCO1 161852Z 03007KT 15/M03 A3028 RMK A01 T01491033  RH  028%=      5-min Rain = 0
KCO1 161853Z 02011KT 15/M03 A3028 RMK A01 T01491030  RH  029%=      5-min Rain = 0
KCO1 161854Z 01010KT 15/M03 A3028 RMK A01 T01501032  RH  028%=      5-min Rain = 0
KCO1 161855Z 02010KT 15/M03 A3028 RMK A01 T01491032  RH  028%=      5-min Rain = 0
KCO1 161856Z 02009KT 15/M03 A3028 RMK A01 T01521030  RH  028%=      5-min Rain = 0
KCO1 161857Z 02008KT 15/M03 A3028 RMK A01 T01511033  RH  028%=      5-min Rain = 0
KCO1 161858Z 00005KT 15/M03 A3028 RMK A01 T01481034  RH  028%=      5-min Rain = 0
KCO1 161859Z 01009G15KT 15/M03 A3028 RMK A01 T01481032  RH  029%=      5-min Rain = 0
KCO1 161900Z 01010KT 15/M03 A3028 RMK A01 T01481033  RH  029%=      5-min Rain = 0
KCO1 161901Z 03011KT 15/M03 A3028 RMK A01 T01481032  RH  029%=      5-min Rain = 0
KCO1 161902Z 04011KT 15/M03 A3028 RMK A01 T01481032  RH  029%=      5-min Rain = 0
KCO1 161903Z 04009KT 15/M03 A3028 RMK A01 T01471034  RH  028%=      5-min Rain = 0
KCO1 161904Z 03010KT 15/M03 A3028 RMK A01 T01461032  RH  029%=      5-min Rain = 0
KCO1 161905Z 03008KT 15/M03 A3028 RMK A01 T01491030  RH  029%=      5-min Rain = 0
KCO1 161906Z 02008KT 15/M03 A3028 RMK A01 T01501032  RH  028%=      5-min Rain = 0
KCO1 161907Z 02010KT 15/M03 A3027 RMK A01 T01481034  RH  028%=      5-min Rain = 0
KCO1 161908Z 00011KT 15/M03 A3027 RMK A01 T01481033  RH  028%=      5-min Rain = 0
KCO1 161909Z 01013KT 15/M03 A3027 RMK A01 T01471034  RH  028%=      5-min Rain = 0
KCO1 161910Z 01008KT 14/M04 A3027 RMK A01 T01441036  RH  029%=      5-min Rain = 0
KCO1 161911Z 01008KT 14/M03 A3027 RMK A01 T01441033  RH  029%=      5-min Rain = 0
KCO1 161912Z 35007KT 15/M03 A3027 RMK A01 T01491030  RH  029%=      5-min Rain = 0
KCO1 161913Z 34005KT 15/M03 A3027 RMK A01 T01501033  RH  028%=      5-min Rain = 0
KCO1 161914Z 01006KT 15/M03 A3027 RMK A01 T01491032  RH  028%=      5-min Rain = 0
KCO1 161915Z 02010KT 15/M03 A3027 RMK A01 T01501031  RH  028%=      5-min Rain = 0
KCO1 161916Z 03009KT 15/M03 A3027 RMK A01 T01481034  RH  028%=      5-min Rain = 0
KCO1 161917Z 04007KT 15/M03 A3027 RMK A01 T01471034  RH  029%=      5-min Rain = 0
KCO1 161918Z 06007KT 15/M03 A3027 RMK A01 T01471032  RH  029%=      5-min Rain = 0
KCO1 161919Z 06005KT 15/M03 A3027 RMK A01 T01491031  RH  029%=      5-min Rain = 0
KCO1 161920Z 04010KT 15/M03 A3027 RMK A01 T01501032  RH  028%=      5-min Rain = 0
KCO1 161921Z 04007KT 15/M03 A3027 RMK A01 T01511031  RH  028%=      5-min Rain = 0
KCO1 161922Z 04009KT 15/M03 A3027 RMK A01 T01531030  RH  028%=      5-min Rain = 0
KCO1 161923Z 04011KT 15/M03 A3026 RMK A01 T01531032  RH  028%=      5-min Rain = 0
KCO1 161924Z 04010KT 15/M03 A3026 RMK A01 T01521031  RH  028%=      5-min Rain = 0
KCO1 161925Z 04011KT 15/M03 A3026 RMK A01 T01521033  RH  028%=      5-min Rain = 0
KCO1 161926Z 04008KT 15/M03 A3026 RMK A01 T01511033  RH  028%=      5-min Rain = 0
KCO1 161927Z 03007KT 15/M03 A3026 RMK A01 T01511032  RH  028%=      5-min Rain = 0
KCO1 161928Z 03006KT 15/M03 A3026 RMK A01 T01501033  RH  028%=      5-min Rain = 0
KCO1 161929Z 03008KT 15/M03 A3026 RMK A01 T01491033  RH  028%=      5-min Rain = 0
KCO1 161930Z 06007KT 15/M03 A3026 RMK A01 T01491033  RH  028%=      5-min Rain = 0
KCO1 161931Z 05007KT 15/M03 A3026 RMK A01 T01511031  RH  028%=      5-min Rain = 0
KCO1 161932Z 05006KT 15/M03 A3026 RMK A01 T01531031  RH  028%=      5-min Rain = 0
KCO1 161933Z 05011KT 15/M03 A3026 RMK A01 T01521033  RH  028%=      5-min Rain = 0
KCO1 161934Z 05007KT 15/M03 A3026 RMK A01 T01521033  RH  028%=      5-min Rain = 0
KCO1 161935Z 05007KT 15/M04 A3026 RMK A01 T01491035  RH  028%=      5-min Rain = 0
KCO1 161936Z 04010KT 15/M03 A3026 RMK A01 T01491033  RH  028%=      5-min Rain = 0
KCO1 161937Z 04008KT 15/M03 A3025 RMK A01 T01491032  RH  028%=      5-min Rain = 0
KCO1 161938Z 01009KT 15/M03 A3025 RMK A01 T01491032  RH  028%=      5-min Rain = 0
KCO1 161939Z 02008KT 15/M03 A3025 RMK A01 T01501033  RH  028%=      5-min Rain = 0
KCO1 161940Z 02006KT 15/M04 A3025 RMK A01 T01481035  RH  028%=      5-min Rain = 0
KCO1 161941Z 03010KT 15/M03 A3025 RMK A01 T01481033  RH  029%=      5-min Rain = 0
KCO1 161942Z 04009KT 15/M03 A3025 RMK A01 T01491033  RH  028%=      5-min Rain = 0
KCO1 161943Z 04007KT 15/M03 A3025 RMK A01 T01481033  RH  028%=      5-min Rain = 0
KCO1 161944Z 03009KT 15/M03 A3025 RMK A01 T01491033  RH  028%=      5-min Rain = 0
KCO1 161945Z 04007KT 15/M03 A3024 RMK A01 T01511031  RH  028%=      5-min Rain = 0
KCO1 161946Z 02005KT 15/M03 A3024 RMK A01 T01521033  RH  028%=      5-min Rain = 0
KCO1 161947Z 02007KT 15/M03 A3024 RMK A01 T01521033  RH  028%=      5-min Rain = 0
KCO1 161948Z 03009KT 15/M03 A3024 RMK A01 T01531031  RH  028%=      5-min Rain = 0
KCO1 161949Z 04009KT 16/M03 A3024 RMK A01 T01551031  RH  028%=      5-min Rain = 0
KCO1 161950Z 03007KT 15/M03 A3024 RMK A01 T01531033  RH  027%=      5-min Rain = 0
KCO1 161951Z 02006KT 15/M03 A3023 RMK A01 T01521033  RH  028%=      5-min Rain = 0
KCO1 161952Z 01006KT 15/M03 A3023 RMK A01 T01521033  RH  028%=      5-min Rain = 0
KCO1 161953Z 06012G25KT 15/M03 A3023 RMK A01 T01531030  RH  028%=      5-min Rain = 0
KCO1 161954Z 06009KT 16/M03 A3023 RMK A01 T01561031  RH  027%=      5-min Rain = 0
KCO1 161955Z 06007KT 16/M03 A3023 RMK A01 T01551032  RH  027%=      5-min Rain = 0
KCO1 161956Z 05006KT 16/M03 A3023 RMK A01 T01561031  RH  027%=      5-min Rain = 0
KCO1 161957Z 02009KT 16/M03 A3023 RMK A01 T01571030  RH  027%=      5-min Rain = 0
KCO1 161958Z 03009KT 16/M03 A3023 RMK A01 T01581030  RH  027%=      5-min Rain = 0
KCO1 161959Z 04006KT 16/M03 A3023 RMK A01 T01551033  RH  027%=      5-min Rain = 0
KCO1 162000Z 05007KT 15/M03 A3023 RMK A01 T01531033  RH  028%=      5-min Rain = 0
KCO1 162001Z 05007KT 15/M03 A3023 RMK A01 T01531032  RH  028%=      5-min Rain = 0
KCO1 162002Z 06009KT 16/M03 A3023 RMK A01 T01561030  RH  028%=      5-min Rain = 0
KCO1 162003Z 06008KT 16/M03 A3022 RMK A01 T01571030  RH  027%=      5-min Rain = 0
KCO1 162004Z 06008KT 16/M03 A3022 RMK A01 T01581029  RH  027%=      5-min Rain = 0
KCO1 162005Z 06009KT 16/M03 A3022 RMK A01 T01581030  RH  027%=      5-min Rain = 0
KCO1 162006Z 06006KT 16/M03 A3022 RMK A01 T01561032  RH  027%=      5-min Rain = 0
KCO1 162007Z 08005KT 16/M03 A3022 RMK A01 T01551031  RH  028%=      5-min Rain = 0
KCO1 162008Z 05006KT 15/M03 A3022 RMK A01 T01541030  RH  028%=      5-min Rain = 0
KCO1 162009Z 03007KT 16/M03 A3022 RMK A01 T01561029  RH  028%=      5-min Rain = 0
KCO1 162010Z 03007KT 16/M03 A3022 RMK A01 T01571029  RH  028%=      5-min Rain = 0
KCO1 162011Z 03009KT 16/M03 A3022 RMK A01 T01551032  RH  027%=      5-min Rain = 0
KCO1 162012Z 07007KT 15/M03 A3022 RMK A01 T01531032  RH  028%=      5-min Rain = 0
KCO1 162013Z 07007KT 15/M03 A3022 RMK A01 T01531031  RH  028%=      5-min Rain = 0
KCO1 162014Z 06010KT 16/M03 A3022 RMK A01 T01551030  RH  028%=      5-min Rain = 0
KCO1 162015Z 05009KT 16/M03 A3022 RMK A01 T01561031  RH  027%=      5-min Rain = 0
KCO1 162016Z 04009KT 15/M03 A3022 RMK A01 T01541032  RH  028%=      5-min Rain = 0
KCO1 162017Z 06010KT 16/M03 A3022 RMK A01 T01561030  RH  028%=      5-min Rain = 0
KCO1 162018Z 04008KT 16/M03 A3022 RMK A01 T01591030  RH  027%=      5-min Rain = 0
KCO1 162019Z 04006KT 16/M03 A3022 RMK A01 T01591032  RH  027%=      5-min Rain = 0
KCO1 162020Z 04004KT 16/M03 A3022 RMK A01 T01571033  RH  027%=      5-min Rain = 0
KCO1 162021Z 01007KT 16/M03 A3022 RMK A01 T01561032  RH  027%=      5-min Rain = 0
KCO1 162022Z 01008KT 16/M03 A3022 RMK A01 T01571031  RH  027%=      5-min Rain = 0
KCO1 162023Z 04008KT 16/M03 A3022 RMK A01 T01571030  RH  028%=      5-min Rain = 0
KCO1 162024Z 05010KT 16/M03 A3022 RMK A01 T01581031  RH  027%=      5-min Rain = 0
KCO1 162025Z 06006KT 16/M03 A3022 RMK A01 T01571032  RH  027%=      5-min Rain = 0
KCO1 162026Z 03006KT 16/M03 A3022 RMK A01 T01571031  RH  027%=      5-min Rain = 0
KCO1 162027Z 04007KT 16/M03 A3021 RMK A01 T01551033  RH  027%=      5-min Rain = 0
KCO1 162028Z 03007KT 16/M03 A3021 RMK A01 T01561029  RH  028%=      5-min Rain = 0
KCO1 162029Z 03010KT 16/M03 A3021 RMK A01 T01591029  RH  027%=      5-min Rain = 0
KCO1 162030Z 04009KT 16/M03 A3021 RMK A01 T01581033  RH  027%=      5-min Rain = 0
KCO1 162031Z 04008KT 16/M03 A3021 RMK A01 T01561032  RH  027%=      5-min Rain = 0
KCO1 162032Z 05007KT 16/M03 A3021 RMK A01 T01551032  RH  027%=      5-min Rain = 0
KCO1 162033Z 05006KT 15/M03 A3021 RMK A01 T01541032  RH  028%=      5-min Rain = 0
KCO1 162034Z 04005KT 15/M03 A3021 RMK A01 T01541032  RH  028%=      5-min Rain = 0
KCO1 162035Z 02006KT 15/M03 A3021 RMK A01 T01531032  RH  028%=      5-min Rain = 0
KCO1 162036Z 02008KT 15/M03 A3021 RMK A01 T01531032  RH  028%=      5-min Rain = 0
KCO1 162037Z 03005KT 15/M03 A3021 RMK A01 T01541031  RH  028%=      5-min Rain = 0
KCO1 162038Z 02005KT 16/M03 A3021 RMK A01 T01551031  RH  028%=      5-min Rain = 0
KCO1 162039Z 04008KT 16/M03 A3021 RMK A01 T01551031  RH  028%=      5-min Rain = 0
KCO1 162040Z 06009KT 16/M03 A3021 RMK A01 T01571030  RH  027%=      5-min Rain = 0
KCO1 162041Z 08008KT 16/M03 A3021 RMK A01 T01581031  RH  027%=      5-min Rain = 0
KCO1 162042Z 06008KT 16/M03 A3021 RMK A01 T01591030  RH  027%=      5-min Rain = 0
KCO1 162043Z 05007KT 16/M03 A3021 RMK A01 T01611030  RH  027%=      5-min Rain = 0
KCO1 162044Z 05007KT 16/M03 A3021 RMK A01 T01601031  RH  027%=      5-min Rain = 0
KCO1 162045Z 04008KT 16/M03 A3021 RMK A01 T01601030  RH  027%=      5-min Rain = 0
KCO1 162046Z 04007KT 16/M03 A3021 RMK A01 T01601031  RH  027%=      5-min Rain = 0
KCO1 162047Z 03006KT 16/M03 A3021 RMK A01 T01571033  RH  027%=      5-min Rain = 0
KCO1 162048Z 05003KT 16/M03 A302 RMK A01 T01561032  RH  027%=      5-min Rain = 0
KCO1 162049Z 06007KT 16/M03 A302 RMK A01 T01581028  RH  028%=      5-min Rain = 0
KCO1 162050Z 06009KT 16/M03 A302 RMK A01 T01611030  RH  027%=      5-min Rain = 0
KCO1 162051Z 05008KT 16/M03 A302 RMK A01 T01611031  RH  027%=      5-min Rain = 0
KCO1 162052Z 05009KT 16/M03 A302 RMK A01 T01621029  RH  027%=      5-min Rain = 0
KCO1 162053Z 04008KT 16/M03 A302 RMK A01 T01621030  RH  027%=      5-min Rain = 0
KCO1 162054Z 05002KT 16/M03 A302 RMK A01 T01581033  RH  027%=      5-min Rain = 0
KCO1 162055Z 04002KT 16/M03 A302 RMK A01 T01561033  RH  027%=      5-min Rain = 0
KCO1 162056Z 04005KT 16/M03 A302 RMK A01 T01561031  RH  027%=      5-min Rain = 0
KCO1 162057Z 04009KT 16/M03 A302 RMK A01 T01561029  RH  028%=      5-min Rain = 0
KCO1 162058Z 03006G11KT 16/M03 A302 RMK A01 T01591028  RH  028%=      5-min Rain = 0
KCO1 162059Z 02007KT 16/M03 A302 RMK A01 T01601028  RH  027%=      5-min Rain = 0
KCO1 162100Z 01007KT 16/M03 A302 RMK A01 T01591030  RH  027%=      5-min Rain = 0
KCO1 162101Z 02008KT 16/M03 A302 RMK A01 T01591029  RH  027%=      5-min Rain = 0
KCO1 162102Z 04007KT 16/M03 A302 RMK A01 T01591028  RH  028%=      5-min Rain = 0
KCO1 162103Z 04006KT 16/M03 A3019 RMK A01 T01631025  RH  027%=      5-min Rain = 0
KCO1 162104Z 06007KT 17/M03 A302 RMK A01 T01661026  RH  027%=      5-min Rain = 0
KCO1 162105Z 05007KT 16/M03 A302 RMK A01 T01641029  RH  026%=      5-min Rain = 0
KCO1 162106Z 04007KT 16/M03 A302 RMK A01 T01631030  RH  026%=      5-min Rain = 0
KCO1 162107Z 03005KT 16/M03 A302 RMK A01 T01601031  RH  027%=      5-min Rain = 0
KCO1 162108Z 05006KT 16/M03 A3019 RMK A01 T01591029  RH  027%=      5-min Rain = 0
KCO1 162109Z 06006KT 16/M03 A3019 RMK A01 T01591029  RH  027%=      5-min Rain = 0
KCO1 162110Z 05007KT 16/M03 A3019 RMK A01 T01601028  RH  027%=      5-min Rain = 0
KCO1 162111Z 05010KT 16/M03 A3019 RMK A01 T01631027  RH  027%=      5-min Rain = 0
KCO1 162112Z 05007KT 16/M03 A3019 RMK A01 T01631030  RH  027%=      5-min Rain = 0
KCO1 162113Z 07007KT 16/M03 A3019 RMK A01 T01621028  RH  027%=      5-min Rain = 0
KCO1 162114Z 04007KT 17/M03 A3019 RMK A01 T01651026  RH  027%=      5-min Rain = 0
KCO1 162115Z 04005KT 17/M03 A3019 RMK A01 T01651029  RH  026%=      5-min Rain = 0
KCO1 162116Z 04006KT 16/M03 A3019 RMK A01 T01631029  RH  027%=      5-min Rain = 0
KCO1 162117Z 02006KT 16/M03 A3019 RMK A01 T01621029  RH  027%=      5-min Rain = 0
KCO1 162118Z 04008KT 16/M03 A3019 RMK A01 T01601029  RH  027%=      5-min Rain = 0
KCO1 162119Z 04006KT 16/M03 A3019 RMK A01 T01611029  RH  027%=      5-min Rain = 0
KCO1 162120Z 04005KT 16/M03 A3019 RMK A01 T01621029  RH  027%=      5-min Rain = 0
KCO1 162121Z 05006KT 16/M03 A3019 RMK A01 T01631029  RH  027%=      5-min Rain = 0
KCO1 162122Z 06006KT 16/M03 A3019 RMK A01 T01631030  RH  027%=      5-min Rain = 0
KCO1 162123Z 07007KT 16/M03 A3019 RMK A01 T01621030  RH  027%=      5-min Rain = 0
KCO1 162124Z 05008KT 16/M03 A3019 RMK A01 T01621029  RH  027%=      5-min Rain = 0
KCO1 162125Z 04007KT 16/M03 A3019 RMK A01 T01621029  RH  027%=      5-min Rain = 0
KCO1 162126Z 05006KT 16/M03 A3019 RMK A01 T01611030  RH  027%=      5-min Rain = 0
KCO1 162127Z 06007KT 16/M03 A3019 RMK A01 T01601029  RH  027%=      5-min Rain = 0
KCO1 162128Z 07007KT 16/M03 A3019 RMK A01 T01601029  RH  027%=      5-min Rain = 0
KCO1 162129Z 07007KT 16/M03 A3019 RMK A01 T01611029  RH  027%=      5-min Rain = 0
KCO1 162130Z 06005KT 16/M03 A3018 RMK A01 T01601030  RH  027%=      5-min Rain = 0
KCO1 162131Z 06007KT 16/M03 A3018 RMK A01 T01611029  RH  027%=      5-min Rain = 0
KCO1 162132Z 05009KT 16/M03 A3018 RMK A01 T01621029  RH  027%=      5-min Rain = 0
KCO1 162133Z 07010KT 16/M03 A3018 RMK A01 T01621030  RH  027%=      5-min Rain = 0
KCO1 162134Z 07008KT 16/M03 A3018 RMK A01 T01621029  RH  027%=      5-min Rain = 0
KCO1 162135Z 07005KT 16/M03 A3018 RMK A01 T01631029  RH  027%=      5-min Rain = 0
KCO1 162136Z 07006KT 17/M03 A3018 RMK A01 T01661026  RH  027%=      5-min Rain = 0
KCO1 162137Z 08006KT 17/M03 A3018 RMK A01 T01681028  RH  026%=      5-min Rain = 0
KCO1 162138Z 07005KT 17/M03 A3018 RMK A01 T01671029  RH  026%=      5-min Rain = 0
KCO1 162139Z 06005KT 17/M03 A3018 RMK A01 T01671028  RH  026%=      5-min Rain = 0
KCO1 162140Z 06006KT 17/M03 A3018 RMK A01 T01681028  RH  026%=      5-min Rain = 0
KCO1 162141Z 06006KT 17/M03 A3018 RMK A01 T01681029  RH  026%=      5-min Rain = 0
KCO1 162142Z 04006KT 17/M03 A3018 RMK A01 T01671029  RH  026%=      5-min Rain = 0
KCO1 162143Z 06005KT 17/M03 A3018 RMK A01 T01651030  RH  026%=      5-min Rain = 0
KCO1 162144Z 06008KT 17/M03 A3018 RMK A01 T01651029  RH  026%=      5-min Rain = 0
KCO1 162145Z 05010KT 17/M03 A3018 RMK A01 T01651029  RH  026%=      5-min Rain = 0
KCO1 162146Z 05010KT 17/M03 A3018 RMK A01 T01651030  RH  026%=      5-min Rain = 0
KCO1 162147Z 05008KT 16/M03 A3018 RMK A01 T01641029  RH  026%=      5-min Rain = 0
KCO1 162148Z 03007KT 17/M03 A3018 RMK A01 T01651028  RH  026%=      5-min Rain = 0
KCO1 162149Z 03008KT 17/M03 A3018 RMK A01 T01661029  RH  026%=      5-min Rain = 0
KCO1 162150Z 03008KT 16/M03 A3018 RMK A01 T01631031  RH  026%=      5-min Rain = 0
KCO1 162151Z 07009KT 16/M03 A3018 RMK A01 T01621029  RH  027%=      5-min Rain = 0
KCO1 162152Z 07009KT 16/M03 A3018 RMK A01 T01641028  RH  027%=      5-min Rain = 0
KCO1 162153Z 08008KT 17/M03 A3018 RMK A01 T01661028  RH  026%=      5-min Rain = 0
KCO1 162154Z 08008KT 17/M03 A3018 RMK A01 T01651030  RH  026%=      5-min Rain = 0
KCO1 162155Z 08008KT 16/M03 A3018 RMK A01 T01631030  RH  026%=      5-min Rain = 0
KCO1 162156Z 08009KT 16/M03 A3018 RMK A01 T01631029  RH  027%=      5-min Rain = 0
KCO1 162157Z 09007KT 17/M03 A3018 RMK A01 T01651028  RH  027%=      5-min Rain = 0
KCO1 162158Z 08006G11KT 16/M03 A3018 RMK A01 T01641028  RH  027%=      5-min Rain = 0
KCO1 162159Z 08011KT 17/M03 A3018 RMK A01 T01671026  RH  027%=      5-min Rain = 0
KCO1 162200Z 08008KT 17/M03 A3018 RMK A01 T01681027  RH  026%=      5-min Rain = 0
KCO1 162201Z 08009KT 17/M03 A3018 RMK A01 T01671028  RH  026%=      5-min Rain = 0
KCO1 162202Z 08008KT 17/M03 A3018 RMK A01 T01651029  RH  026%=      5-min Rain = 0
KCO1 162203Z 09005KT 16/M03 A3017 RMK A01 T01621031  RH  027%=      5-min Rain = 0
KCO1 162204Z 06009KT 16/M03 A3017 RMK A01 T01621028  RH  027%=      5-min Rain = 0
KCO1 162205Z 06008KT 17/M03 A3017 RMK A01 T01651027  RH  027%=      5-min Rain = 0
KCO1 162206Z 07008KT 17/M03 A3017 RMK A01 T01661028  RH  026%=      5-min Rain = 0
KCO1 162207Z 07006KT 16/M03 A3017 RMK A01 T01631030  RH  026%=      5-min Rain = 0
KCO1 162208Z 06008KT 16/M03 A3017 RMK A01 T01621029  RH  027%=      5-min Rain = 0
KCO1 162209Z 07010KT 16/M03 A3017 RMK A01 T01641027  RH  027%=      5-min Rain = 0
KCO1 162210Z 07008KT 16/M03 A3017 RMK A01 T01641028  RH  027%=      5-min Rain = 0
KCO1 162211Z 07009KT 17/M03 A3017 RMK A01 T01671026  RH  027%=      5-min Rain = 0
KCO1 162212Z 07007KT 17/M03 A3017 RMK A01 T01671027  RH  026%=      5-min Rain = 0
KCO1 162213Z 07007KT 17/M03 A3017 RMK A01 T01671027  RH  026%=      5-min Rain = 0
KCO1 162214Z 06006KT 17/M03 A3017 RMK A01 T01651029  RH  026%=      5-min Rain = 0
KCO1 162215Z 07006KT 16/M03 A3017 RMK A01 T01641029  RH  027%=      5-min Rain = 0
KCO1 162216Z 08007KT 16/M03 A3017 RMK A01 T01641028  RH  027%=      5-min Rain = 0
KCO1 162217Z 08006KT 16/M03 A3017 RMK A01 T01641028  RH  027%=      5-min Rain = 0
KCO1 162218Z 05009KT 16/M03 A3017 RMK A01 T01641028  RH  027%=      5-min Rain = 0
KCO1 162219Z 05010KT 17/M03 A3017 RMK A01 T01661027  RH  026%=      5-min Rain = 0
KCO1 162220Z 06008KT 17/M03 A3017 RMK A01 T01651029  RH  026%=      5-min Rain = 0
KCO1 162221Z 04006KT 17/M03 A3017 RMK A01 T01651028  RH  027%=      5-min Rain = 0
KCO1 162222Z 07005KT 17/M03 A3016 RMK A01 T01671027  RH  026%=      5-min Rain = 0
KCO1 162223Z 06007KT 17/M03 A3016 RMK A01 T01681026  RH  026%=      5-min Rain = 0
KCO1 162224Z 05007KT 17/M03 A3016 RMK A01 T01671028  RH  026%=      5-min Rain = 0
KCO1 162225Z 06007KT 17/M03 A3016 RMK A01 T01661027  RH  026%=      5-min Rain = 0
KCO1 162226Z 07005KT 17/M03 A3016 RMK A01 T01681026  RH  027%=      5-min Rain = 0
KCO1 162227Z 06007KT 17/M03 A3016 RMK A01 T01691026  RH  026%=      5-min Rain = 0
KCO1 162228Z 06006KT 17/M03 A3016 RMK A01 T01691026  RH  026%=      5-min Rain = 0
KCO1 162229Z 07010KT 17/M03 A3016 RMK A01 T01691026  RH  026%=      5-min Rain = 0
KCO1 162230Z 06010KT 17/M03 A3016 RMK A01 T01681027  RH  026%=      5-min Rain = 0
KCO1 162231Z 07008KT 17/M03 A3016 RMK A01 T01671027  RH  026%=      5-min Rain = 0
KCO1 162232Z 08008KT 17/M03 A3016 RMK A01 T01651027  RH  027%=      5-min Rain = 0
KCO1 162233Z 07007KT 17/M03 A3016 RMK A01 T01661027  RH  027%=      5-min Rain = 0
KCO1 162234Z 08004KT 17/M03 A3016 RMK A01 T01651028  RH  027%=      5-min Rain = 0
KCO1 162235Z 06006KT 16/M03 A3016 RMK A01 T01641027  RH  027%=      5-min Rain = 0
KCO1 162236Z 06005KT 17/M03 A3016 RMK A01 T01661025  RH  027%=      5-min Rain = 0
KCO1 162237Z 03006KT 17/M03 A3016 RMK A01 T01671026  RH  027%=      5-min Rain = 0
KCO1 162238Z 05006KT 17/M03 A3016 RMK A01 T01661026  RH  027%=      5-min Rain = 0
KCO1 162239Z 10006KT 17/M03 A3016 RMK A01 T01671026  RH  027%=      5-min Rain = 0
KCO1 162240Z 09005KT 17/M03 A3016 RMK A01 T01671027  RH  026%=      5-min Rain = 0
KCO1 162241Z 08008G13KT 17/M03 A3016 RMK A01 T01661028  RH  026%=      5-min Rain = 0
KCO1 162242Z 08008KT 17/M03 A3016 RMK A01 T01671026  RH  027%=      5-min Rain = 0
KCO1 162243Z 08010KT 17/M03 A3016 RMK A01 T01681027  RH  026%=      5-min Rain = 0
KCO1 162244Z 07010KT 17/M03 A3016 RMK A01 T01651030  RH  026%=      5-min Rain = 0
KCO1 162245Z 07006KT 16/M03 A3016 RMK A01 T01631030  RH  027%=      5-min Rain = 0
KCO1 162246Z 08005KT 16/M03 A3016 RMK A01 T01631029  RH  027%=      5-min Rain = 0
KCO1 162247Z 07005KT 16/M03 A3016 RMK A01 T01621030  RH  027%=      5-min Rain = 0
KCO1 162248Z 06008KT 16/M03 A3016 RMK A01 T01621029  RH  027%=      5-min Rain = 0
KCO1 162249Z 05007KT 16/M03 A3016 RMK A01 T01611029  RH  027%=      5-min Rain = 0
KCO1 162250Z 05005KT 16/M03 A3016 RMK A01 T01601029  RH  027%=      5-min Rain = 0
KCO1 162251Z 07005KT 16/M03 A3016 RMK A01 T01611027  RH  027%=      5-min Rain = 0
KCO1 162252Z 07009KT 16/M03 A3016 RMK A01 T01621028  RH  027%=      5-min Rain = 0
KCO1 162253Z 07009KT 16/M03 A3016 RMK A01 T01611029  RH  027%=      5-min Rain = 0
KCO1 162254Z 08006KT 16/M03 A3016 RMK A01 T01601029  RH  027%=      5-min Rain = 0
KCO1 162255Z 08009KT 16/M03 A3016 RMK A01 T01601029  RH  027%=      5-min Rain = 0
KCO1 162256Z 08008KT 16/M03 A3016 RMK A01 T01601030  RH  027%=      5-min Rain = 0
KCO1 162257Z 07008KT 16/M03 A3016 RMK A01 T01591030  RH  027%=      5-min Rain = 0
KCO1 162258Z 07006KT 16/M03 A3016 RMK A01 T01591030  RH  027%=      5-min Rain = 0
KCO1 162259Z 07006KT 16/M03 A3016 RMK A01 T01611027  RH  027%=      5-min Rain = 0
KCO1 162300Z 06008KT 16/M03 A3016 RMK A01 T01641028  RH  027%=      5-min Rain = 0
KCO1 162301Z 06006KT 16/M03 A3016 RMK A01 T01631029  RH  027%=      5-min Rain = 0
KCO1 162302Z 07006KT 16/M03 A3016 RMK A01 T01621029  RH  027%=      5-min Rain = 0
KCO1 162303Z 08009KT 16/M03 A3016 RMK A01 T01631028  RH  027%=      5-min Rain = 0
KCO1 162304Z 07009KT 16/M03 A3016 RMK A01 T01631028  RH  027%=      5-min Rain = 0
KCO1 162305Z 07006KT 16/M03 A3016 RMK A01 T01631028  RH  027%=      5-min Rain = 0
KCO1 162306Z 06008KT 16/M03 A3016 RMK A01 T01641027  RH  027%=      5-min Rain = 0
KCO1 162307Z 06007KT 17/M03 A3016 RMK A01 T01651028  RH  026%=      5-min Rain = 0
KCO1 162308Z 06006KT 16/M03 A3015 RMK A01 T01641029  RH  027%=      5-min Rain = 0
KCO1 162309Z 07008KT 16/M03 A3016 RMK A01 T01641027  RH  027%=      5-min Rain = 0
KCO1 162310Z 07008KT 16/M03 A3016 RMK A01 T01631028  RH  027%=      5-min Rain = 0
KCO1 162311Z 08008KT 16/M03 A3016 RMK A01 T01611029  RH  027%=      5-min Rain = 0
KCO1 162312Z 08007KT 16/M03 A3015 RMK A01 T01601029  RH  027%=      5-min Rain = 0
KCO1 162313Z 07007KT 16/M03 A3015 RMK A01 T01601028  RH  027%=      5-min Rain = 0
KCO1 162314Z 07008KT 16/M03 A3016 RMK A01 T01611027  RH  027%=      5-min Rain = 0
KCO1 162315Z 08006KT 16/M03 A3016 RMK A01 T01611028  RH  027%=      5-min Rain = 0
KCO1 162316Z 06005KT 16/M03 A3015 RMK A01 T01601028  RH  027%=      5-min Rain = 0
KCO1 162317Z 08006KT 16/M03 A3015 RMK A01 T01591027  RH  028%=      5-min Rain = 0
KCO1 162318Z 08007KT 16/M03 A3015 RMK A01 T01591027  RH  028%=      5-min Rain = 0
KCO1 162319Z 07009KT 16/M03 A3016 RMK A01 T01591027  RH  028%=      5-min Rain = 0
KCO1 162320Z 07006KT 16/M03 A3015 RMK A01 T01581028  RH  028%=      5-min Rain = 0
KCO1 162321Z 07005KT 16/M03 A3015 RMK A01 T01571028  RH  028%=      5-min Rain = 0
KCO1 162322Z 06007KT 16/M03 A3015 RMK A01 T01571028  RH  028%=      5-min Rain = 0
KCO1 162323Z 06006KT 16/M03 A3015 RMK A01 T01571028  RH  028%=      5-min Rain = 0
KCO1 162324Z 05006KT 16/M03 A3015 RMK A01 T01571029  RH  028%=      5-min Rain = 0
KCO1 162325Z 05008KT 16/M03 A3015 RMK A01 T01561029  RH  028%=      5-min Rain = 0
KCO1 162326Z 05009KT 16/M03 A3015 RMK A01 T01561029  RH  028%=      5-min Rain = 0
KCO1 162327Z 06009KT 16/M03 A3015 RMK A01 T01551029  RH  028%=      5-min Rain = 0
KCO1 162328Z 06008KT 16/M03 A3015 RMK A01 T01551029  RH  028%=      5-min Rain = 0
KCO1 162329Z 07007KT 16/M03 A3015 RMK A01 T01551029  RH  028%=      5-min Rain = 0
KCO1 162330Z 07007KT 15/M03 A3015 RMK A01 T01541030  RH  028%=      5-min Rain = 0
KCO1 162331Z 07008KT 15/M03 A3015 RMK A01 T01541029  RH  028%=      5-min Rain = 0
KCO1 162332Z 06008KT 15/M03 A3015 RMK A01 T01531029  RH  028%=      5-min Rain = 0
KCO1 162333Z 07010KT 15/M03 A3015 RMK A01 T01531029  RH  028%=      5-min Rain = 0
KCO1 162334Z 06009KT 15/M03 A3015 RMK A01 T01531029  RH  028%=      5-min Rain = 0
KCO1 162335Z 06008KT 15/M03 A3015 RMK A01 T01521029  RH  029%=      5-min Rain = 0
KCO1 162336Z 06009KT 15/M03 A3015 RMK A01 T01521028  RH  029%=      5-min Rain = 0
KCO1 162337Z 07007KT 15/M03 A3015 RMK A01 T01531028  RH  029%=      5-min Rain = 0
KCO1 162338Z 06007KT 15/M03 A3015 RMK A01 T01531029  RH  029%=      5-min Rain = 0
KCO1 162339Z 06009KT 15/M03 A3015 RMK A01 T01531028  RH  029%=      5-min Rain = 0
KCO1 162340Z 06009KT 15/M03 A3015 RMK A01 T01531028  RH  029%=      5-min Rain = 0
KCO1 162341Z 06007KT 15/M03 A3015 RMK A01 T01531029  RH  028%=      5-min Rain = 0
KCO1 162342Z 07007KT 15/M03 A3015 RMK A01 T01531029  RH  028%=      5-min Rain = 0
KCO1 162343Z 07007KT 15/M03 A3015 RMK A01 T01541028  RH  029%=      5-min Rain = 0
KCO1 162344Z 06008KT 15/M03 A3015 RMK A01 T01541028  RH  029%=      5-min Rain = 0
KCO1 162345Z 07008KT 15/M03 A3015 RMK A01 T01541028  RH  029%=      5-min Rain = 0
KCO1 162346Z 06010KT 15/M03 A3015 RMK A01 T01541028  RH  029%=      5-min Rain = 0
KCO1 162347Z 05009KT 15/M03 A3015 RMK A01 T01531028  RH  029%=      5-min Rain = 0
KCO1 162348Z 05010KT 15/M03 A3015 RMK A01 T01531028  RH  029%=      5-min Rain = 0
KCO1 162349Z 06008KT 15/M03 A3015 RMK A01 T01521028  RH  029%=      5-min Rain = 0
KCO1 162350Z 07007KT 15/M03 A3015 RMK A01 T01521028  RH  029%=      5-min Rain = 0
KCO1 162351Z 07007KT 15/M03 A3015 RMK A01 T01521028  RH  029%=      5-min Rain = 0
KCO1 162352Z 06007KT 15/M03 A3015 RMK A01 T01521028  RH  029%=      5-min Rain = 0
KCO1 162353Z 06007KT 15/M03 A3014 RMK A01 T01521028  RH  029%=      5-min Rain = 0
KCO1 162354Z 07008KT 15/M03 A3014 RMK A01 T01521028  RH  029%=      5-min Rain = 0
KCO1 162355Z 07010KT 15/M03 A3014 RMK A01 T01511029  RH  029%=      5-min Rain = 0
KCO1 162356Z 07007KT 15/M03 A3014 RMK A01 T01511028  RH  029%=      5-min Rain = 0
KCO1 162357Z 06007KT 15/M03 A3014 RMK A01 T01511028  RH  029%=      5-min Rain = 0
KCO1 162358Z 07008KT 15/M03 A3014 RMK A01 T01511028  RH  029%=      5-min Rain = 0
KCO1 162359Z 07007KT 15/M03 A3014 RMK A01 T01511028  RH  029%=      5-min Rain = 0
KCO1 170000Z 07006G11KT 15/M03 A3014 RMK A01 T01511028  RH  029%=      5-min Rain = 0
KCO1 170001Z 07009KT 15/M03 A3014 RMK A01 T01511028  RH  029%=      5-min Rain = 0
KCO1 170002Z 08009KT 15/M03 A3014 RMK A01 T01511029  RH  029%=      5-min Rain = 0
KCO1 170003Z 07009KT 15/M03 A3014 RMK A01 T01501029  RH  029%=      5-min Rain = 0
KCO1 170004Z 07009KT 15/M03 A3014 RMK A01 T01501030  RH  029%=      5-min Rain = 0
KCO1 170005Z 07008KT 15/M03 A3014 RMK A01 T01491029  RH  029%=      5-min Rain = 0
KCO1 170006Z 07008KT 15/M03 A3014 RMK A01 T01491029  RH  029%=      5-min Rain = 0
KCO1 170007Z 07008KT 15/M03 A3014 RMK A01 T01491029  RH  029%=      5-min Rain = 0
KCO1 170008Z 07009KT 15/M03 A3014 RMK A01 T01491029  RH  029%=      5-min Rain = 0
KCO1 170009Z 07009KT 15/M03 A3014 RMK A01 T01491028  RH  029%=      5-min Rain = 0
KCO1 170010Z 08009KT 15/M03 A3014 RMK A01 T01491029  RH  029%=      5-min Rain = 0
KCO1 170011Z 08008KT 15/M03 A3014 RMK A01 T01491029  RH  029%=      5-min Rain = 0
KCO1 170012Z 07007KT 15/M03 A3014 RMK A01 T01491029  RH  029%=      5-min Rain = 0
KCO1 170013Z 08007KT 15/M03 A3014 RMK A01 T01481029  RH  029%=      5-min Rain = 0
KCO1 170014Z 08010KT 15/M03 A3014 RMK A01 T01481029  RH  029%=      5-min Rain = 0
KCO1 170015Z 07009KT 15/M03 A3014 RMK A01 T01481029  RH  029%=      5-min Rain = 0
KCO1 170016Z 07007KT 15/M03 A3014 RMK A01 T01481029  RH  029%=      5-min Rain = 0
KCO1 170017Z 07009KT 15/M03 A3014 RMK A01 T01481029  RH  029%=      5-min Rain = 0
KCO1 170018Z 07008KT 15/M03 A3014 RMK A01 T01481030  RH  029%=      5-min Rain = 0
KCO1 170019Z 07007KT 15/M03 A3014 RMK A01 T01471030  RH  029%=      5-min Rain = 0
KCO1 170020Z 07007KT 15/M03 A3014 RMK A01 T01471029  RH  029%=      5-min Rain = 0
KCO1 170021Z 08008KT 15/M03 A3014 RMK A01 T01471029  RH  030%=      5-min Rain = 0
KCO1 170022Z 08009KT 15/M03 A3014 RMK A01 T01471029  RH  030%=      5-min Rain = 0
KCO1 170023Z 08010KT 15/M03 A3014 RMK A01 T01461030  RH  029%=      5-min Rain = 0
KCO1 170024Z 08009KT 15/M03 A3014 RMK A01 T01461030  RH  029%=      5-min Rain = 0
KCO1 170025Z 08009KT 15/M03 A3014 RMK A01 T01461030  RH  030%=      5-min Rain = 0
KCO1 170026Z 07007KT 15/M03 A3013 RMK A01 T01461030  RH  030%=      5-min Rain = 0
KCO1 170027Z 07008KT 15/M03 A3013 RMK A01 T01451030  RH  030%=      5-min Rain = 0
KCO1 170028Z 08008KT 15/M03 A3013 RMK A01 T01451030  RH  030%=      5-min Rain = 0
KCO1 170029Z 08008KT 15/M03 A3013 RMK A01 T01451029  RH  030%=      5-min Rain = 0
KCO1 170030Z 08007KT 15/M03 A3013 RMK A01 T01451029  RH  030%=      5-min Rain = 0
KCO1 170031Z 07007KT 14/M03 A3013 RMK A01 T01441029  RH  030%=      5-min Rain = 0
KCO1 170032Z 07007KT 14/M03 A3013 RMK A01 T01441030  RH  030%=      5-min Rain = 0
KCO1 170033Z 07006KT 14/M03 A3013 RMK A01 T01441029  RH  030%=      5-min Rain = 0
KCO1 170034Z 07007KT 14/M03 A3014 RMK A01 T01441029  RH  030%=      5-min Rain = 0
KCO1 170035Z 07007KT 14/M03 A3014 RMK A01 T01431030  RH  030%=      5-min Rain = 0
KCO1 170036Z 07008KT 14/M03 A3014 RMK A01 T01431029  RH  030%=      5-min Rain = 0
KCO1 170037Z 07008KT 14/M03 A3013 RMK A01 T01431030  RH  030%=      5-min Rain = 0
KCO1 170038Z 07008KT 14/M03 A3013 RMK A01 T01431030  RH  030%=      5-min Rain = 0
KCO1 170039Z 07007KT 14/M03 A3013 RMK A01 T01431030  RH  030%=      5-min Rain = 0
KCO1 170040Z 08007KT 14/M03 A3013 RMK A01 T01431030  RH  030%=      5-min Rain = 0
KCO1 170041Z 07008KT 14/M03 A3013 RMK A01 T01421029  RH  030%=      5-min Rain = 0
KCO1 170042Z 08008KT 14/M03 A3013 RMK A01 T01421030  RH  030%=      5-min Rain = 0
KCO1 170043Z 07008KT 14/M03 A3013 RMK A01 T01421030  RH  030%=      5-min Rain = 0
KCO1 170044Z 07008KT 14/M03 A3013 RMK A01 T01411030  RH  030%=      5-min Rain = 0
KCO1 170045Z 07008KT 14/M03 A3013 RMK A01 T01411030  RH  030%=      5-min Rain = 0
KCO1 170046Z 07008KT 14/M03 A3013 RMK A01 T01411030  RH  030%=      5-min Rain = 0
KCO1 170047Z 07007KT 14/M03 A3013 RMK A01 T01411030  RH  030%=      5-min Rain = 0
KCO1 170048Z 07007KT 14/M03 A3013 RMK A01 T01411030  RH  030%=      5-min Rain = 0
KCO1 170049Z 07007KT 14/M03 A3013 RMK A01 T01411030  RH  031%=      5-min Rain = 0
KCO1 170050Z 08006KT 14/M03 A3013 RMK A01 T01401030  RH  031%=      5-min Rain = 0
KCO1 170051Z 07007KT 14/M03 A3013 RMK A01 T01401030  RH  031%=      5-min Rain = 0
KCO1 170052Z 07008KT 14/M03 A3013 RMK A01 T01401030  RH  031%=      5-min Rain = 0
KCO1 170053Z 07007KT 14/M03 A3013 RMK A01 T01401030  RH  031%=      5-min Rain = 0
KCO1 170054Z 07008KT 14/M03 A3013 RMK A01 T01401031  RH  031%=      5-min Rain = 0
KCO1 170055Z 08007KT 14/M03 A3013 RMK A01 T01401031  RH  031%=      5-min Rain = 0
KCO1 170056Z 07007KT 14/M03 A3013 RMK A01 T01401031  RH  031%=      5-min Rain = 0
KCO1 170057Z 07007KT 14/M03 A3013 RMK A01 T01401031  RH  031%=      5-min Rain = 0
KCO1 170058Z 07008KT 14/M03 A3013 RMK A01 T01401031  RH  031%=      5-min Rain = 0
KCO1 170059Z 07005KT 14/M03 A3013 RMK A01 T01391031  RH  031%=      5-min Rain = 0
KCO1 170100Z 07007KT 14/M03 A3013 RMK A01 T01401030  RH  031%=      5-min Rain = 0
KCO1 170101Z 07007KT 14/M03 A3013 RMK A01 T01391030  RH  031%=      5-min Rain = 0
KCO1 170102Z 07008KT 14/M03 A3013 RMK A01 T01391030  RH  031%=      5-min Rain = 0
KCO1 170103Z 06006KT 14/M03 A3013 RMK A01 T01391030  RH  031%=      5-min Rain = 0
KCO1 170104Z 07008KT 14/M03 A3013 RMK A01 T01391030  RH  031%=      5-min Rain = 0
KCO1 170105Z 06006KT 14/M03 A3013 RMK A01 T01381031  RH  031%=      5-min Rain = 0
KCO1 170106Z 07007KT 14/M03 A3013 RMK A01 T01381031  RH  031%=      5-min Rain = 0
KCO1 170107Z 06006KT 14/M03 A3013 RMK A01 T01381030  RH  031%=      5-min Rain = 0
KCO1 170108Z 06007KT 14/M03 A3013 RMK A01 T01381031  RH  031%=      5-min Rain = 0
KCO1 170109Z 06007KT 14/M03 A3013 RMK A01 T01371031  RH  031%=      5-min Rain = 0
KCO1 170110Z 06007KT 14/M03 A3013 RMK A01 T01371031  RH  031%=      5-min Rain = 0
KCO1 170111Z 07008KT 14/M03 A3013 RMK A01 T01371031  RH  031%=      5-min Rain = 0
KCO1 170112Z 06006KT 14/M03 A3013 RMK A01 T01371031  RH  031%=      5-min Rain = 0
KCO1 170113Z 07007KT 14/M03 A3013 RMK A01 T01371031  RH  031%=      5-min Rain = 0
KCO1 170114Z 06006KT 14/M03 A3013 RMK A01 T01361031  RH  031%=      5-min Rain = 0
KCO1 170115Z 07006KT 14/M03 A3013 RMK A01 T01361032  RH  031%=      5-min Rain = 0
KCO1 170116Z 07006KT 14/M03 A3013 RMK A01 T01351032  RH  031%=      5-min Rain = 0
KCO1 170117Z 07007KT 14/M03 A3013 RMK A01 T01351031  RH  031%=      5-min Rain = 0
KCO1 170118Z 06006KT 14/M03 A3013 RMK A01 T01351031  RH  031%=      5-min Rain = 0
KCO1 170119Z 07007KT 14/M03 A3013 RMK A01 T01351031  RH  031%=      5-min Rain = 0
KCO1 170120Z 06007KT 14/M03 A3013 RMK A01 T01351031  RH  031%=      5-min Rain = 0
KCO1 170121Z 06007KT 14/M03 A3012 RMK A01 T01351032  RH  031%=      5-min Rain = 0
KCO1 170122Z 06007KT 13/M03 A3012 RMK A01 T01341032  RH  031%=      5-min Rain = 0
KCO1 170123Z 06008KT 13/M03 A3012 RMK A01 T01341031  RH  032%=      5-min Rain = 0
KCO1 170124Z 07007KT 13/M03 A3012 RMK A01 T01341031  RH  032%=      5-min Rain = 0
KCO1 170125Z 07007KT 13/M03 A3012 RMK A01 T01341032  RH  032%=      5-min Rain = 0
KCO1 170126Z 07007KT 13/M03 A3012 RMK A01 T01341031  RH  032%=      5-min Rain = 0
KCO1 170127Z 07008KT 13/M03 A3012 RMK A01 T01341031  RH  032%=      5-min Rain = 0
KCO1 170128Z 07008KT 13/M03 A3012 RMK A01 T01341031  RH  032%=      5-min Rain = 0
KCO1 170129Z 07008KT 13/M03 A3012 RMK A01 T01331031  RH  032%=      5-min Rain = 0
KCO1 170130Z 07008KT 13/M03 A3012 RMK A01 T01331031  RH  032%=      5-min Rain = 0
KCO1 170131Z 07009KT 13/M03 A3012 RMK A01 T01331031  RH  032%=      5-min Rain = 0
KCO1 170132Z 07008KT 13/M03 A3011 RMK A01 T01331031  RH  032%=      5-min Rain = 0
KCO1 170133Z 07007KT 13/M03 A3011 RMK A01 T01331031  RH  032%=      5-min Rain = 0
KCO1 170134Z 07008KT 13/M03 A3011 RMK A01 T01331031  RH  032%=      5-min Rain = 0
KCO1 170135Z 07007KT 13/M03 A3011 RMK A01 T01331031  RH  032%=      5-min Rain = 0
KCO1 170136Z 07007KT 13/M03 A3011 RMK A01 T01321031  RH  032%=      5-min Rain = 0
KCO1 170137Z 07008KT 13/M03 A3011 RMK A01 T01321031  RH  032%=      5-min Rain = 0
KCO1 170138Z 07008KT 13/M03 A3011 RMK A01 T01321031  RH  032%=      5-min Rain = 0
KCO1 170139Z 07008KT 13/M03 A3011 RMK A01 T01321030  RH  032%=      5-min Rain = 0
KCO1 170140Z 08007KT 13/M03 A3011 RMK A01 T01321030  RH  032%=      5-min Rain = 0
KCO1 170141Z 08007KT 13/M03 A3011 RMK A01 T01311030  RH  033%=      5-min Rain = 0
KCO1 170142Z 08008KT 13/M03 A3011 RMK A01 T01311030  RH  033%=      5-min Rain = 0
KCO1 170143Z 08007KT 13/M03 A3011 RMK A01 T01301030  RH  033%=      5-min Rain = 0
KCO1 170144Z 08007KT 13/M03 A3011 RMK A01 T01311029  RH  033%=      5-min Rain = 0
KCO1 170145Z 08007KT 13/M03 A3011 RMK A01 T01301029  RH  033%=      5-min Rain = 0
KCO1 170146Z 08008KT 13/M03 A3011 RMK A01 T01301030  RH  033%=      5-min Rain = 0
KCO1 170147Z 08008KT 13/M03 A3011 RMK A01 T01311030  RH  033%=      5-min Rain = 0
KCO1 170148Z 08007KT 13/M03 A3011 RMK A01 T01311031  RH  032%=      5-min Rain = 0
KCO1 170149Z 08008KT 13/M03 A3011 RMK A01 T01321031  RH  032%=      5-min Rain = 0
KCO1 170150Z 07007KT 13/M03 A3011 RMK A01 T01321031  RH  032%=      5-min Rain = 0
KCO1 170151Z 08009KT 13/M03 A3011 RMK A01 T01311031  RH  032%=      5-min Rain = 0
KCO1 170152Z 07007KT 13/M03 A3011 RMK A01 T01321031  RH  032%=      5-min Rain = 0
KCO1 170153Z 07007KT 13/M03 A3011 RMK A01 T01321031  RH  032%=      5-min Rain = 0
KCO1 170154Z 08008KT 13/M03 A3011 RMK A01 T01321031  RH  032%=      5-min Rain = 0
KCO1 170155Z 08007KT 13/M03 A3011 RMK A01 T01321031  RH  032%=      5-min Rain = 0
KCO1 170156Z 08006KT 13/M03 A301 RMK A01 T01321031  RH  032%=      5-min Rain = 0
KCO1 170157Z 08007KT 13/M03 A3011 RMK A01 T01321031  RH  032%=      5-min Rain = 0
KCO1 170158Z 08008KT 13/M03 A3011 RMK A01 T01321031  RH  032%=      5-min Rain = 0
KCO1 170159Z 08006KT 13/M03 A3011 RMK A01 T01321031  RH  032%=      5-min Rain = 0
KCO1 170200Z 08006KT 13/M03 A3011 RMK A01 T01311031  RH  032%=      5-min Rain = 0
KCO1 170201Z 07007KT 13/M03 A3011 RMK A01 T01321030  RH  032%=      5-min Rain = 0
KCO1 170202Z 08007KT 13/M03 A3011 RMK A01 T01321031  RH  032%=      5-min Rain = 0
KCO1 170203Z 08007KT 13/M03 A3011 RMK A01 T01321030  RH  032%=      5-min Rain = 0
KCO1 170204Z 07007KT 13/M03 A3011 RMK A01 T01321030  RH  032%=      5-min Rain = 0
KCO1 170205Z 07007KT 13/M03 A3011 RMK A01 T01321031  RH  032%=      5-min Rain = 0
KCO1 170206Z 07005KT 13/M03 A3012 RMK A01 T01321030  RH  032%=      5-min Rain = 0
KCO1 170207Z 07007KT 13/M03 A3012 RMK A01 T01321030  RH  032%=      5-min Rain = 0
KCO1 170208Z 06006KT 13/M03 A3012 RMK A01 T01321030  RH  032%=      5-min Rain = 0
KCO1 170209Z 07008KT 13/M03 A3012 RMK A01 T01321030  RH  032%=      5-min Rain = 0
KCO1 170210Z 07007KT 13/M03 A3012 RMK A01 T01321030  RH  033%=      5-min Rain = 0
KCO1 170211Z 06007KT 13/M03 A3012 RMK A01 T01321029  RH  033%=      5-min Rain = 0
KCO1 170212Z 07006KT 13/M03 A3012 RMK A01 T01321029  RH  033%=      5-min Rain = 0
KCO1 170213Z 06006KT 13/M03 A3012 RMK A01 T01321029  RH  033%=      5-min Rain = 0
KCO1 170214Z 07006KT 13/M03 A3012 RMK A01 T01311029  RH  033%=      5-min Rain = 0
KCO1 170215Z 07007KT 13/M03 A3012 RMK A01 T01311029  RH  033%=      5-min Rain = 0
KCO1 170216Z 07007KT 13/M03 A3012 RMK A01 T01311029  RH  033%=      5-min Rain = 0
KCO1 170217Z 07007KT 13/M03 A3012 RMK A01 T01311029  RH  033%=      5-min Rain = 0
KCO1 170218Z 07007KT 13/M03 A3012 RMK A01 T01311029  RH  033%=      5-min Rain = 0
KCO1 170219Z 07006KT 13/M03 A3011 RMK A01 T01311029  RH  033%=      5-min Rain = 0
KCO1 170220Z 08005KT 13/M03 A3011 RMK A01 T01301029  RH  033%=      5-min Rain = 0
KCO1 170221Z 08006KT 13/M03 A3011 RMK A01 T01301029  RH  033%=      5-min Rain = 0
KCO1 170222Z 08007KT 13/M03 A3011 RMK A01 T01291029  RH  033%=      5-min Rain = 0
KCO1 170223Z 07007KT 13/M03 A3011 RMK A01 T01291029  RH  033%=      5-min Rain = 0
KCO1 170224Z 08007KT 13/M03 A3011 RMK A01 T01291029  RH  033%=      5-min Rain = 0
KCO1 170225Z 08007KT 13/M03 A3011 RMK A01 T01291028  RH  033%=      5-min Rain = 0
KCO1 170226Z 09006KT 13/M03 A3011 RMK A01 T01291029  RH  033%=      5-min Rain = 0
KCO1 170227Z 08007KT 13/M03 A3011 RMK A01 T01291028  RH  033%=      5-min Rain = 0
KCO1 170228Z 08007KT 13/M03 A3011 RMK A01 T01291028  RH  033%=      5-min Rain = 0
KCO1 170229Z 08006KT 13/M03 A3011 RMK A01 T01281028  RH  034%=      5-min Rain = 0
KCO1 170230Z 08007KT 13/M03 A3011 RMK A01 T01281029  RH  034%=      5-min Rain = 0
KCO1 170231Z 08007KT 13/M03 A301 RMK A01 T01281029  RH  034%=      5-min Rain = 0
KCO1 170232Z 08006KT 13/M03 A301 RMK A01 T01281029  RH  033%=      5-min Rain = 0
KCO1 170233Z 08006KT 13/M03 A301 RMK A01 T01281029  RH  033%=      5-min Rain = 0
KCO1 170234Z 07007KT 13/M03 A301 RMK A01 T01281029  RH  033%=      5-min Rain = 0
KCO1 170235Z 07006KT 13/M03 A301 RMK A01 T01271030  RH  033%=      5-min Rain = 0
KCO1 170236Z 07006KT 13/M03 A301 RMK A01 T01281029  RH  033%=      5-min Rain = 0
KCO1 170237Z 08007KT 13/M03 A301 RMK A01 T01271029  RH  033%=      5-min Rain = 0
KCO1 170238Z 08006KT 13/M03 A301 RMK A01 T01271029  RH  034%=      5-min Rain = 0
KCO1 170239Z 08006KT 13/M03 A301 RMK A01 T01271029  RH  034%=      5-min Rain = 0
KCO1 170240Z 08007KT 13/M03 A301 RMK A01 T01271029  RH  034%=      5-min Rain = 0
KCO1 170241Z 07007KT 13/M03 A301 RMK A01 T01271029  RH  034%=      5-min Rain = 0
KCO1 170242Z 08007KT 13/M03 A301 RMK A01 T01271029  RH  034%=      5-min Rain = 0
KCO1 170243Z 08006KT 13/M03 A301 RMK A01 T01271029  RH  034%=      5-min Rain = 0
KCO1 170244Z 08006KT 13/M03 A301 RMK A01 T01261029  RH  034%=      5-min Rain = 0
KCO1 170245Z 08005KT 13/M03 A301 RMK A01 T01261029  RH  034%=      5-min Rain = 0
KCO1 170246Z 08006KT 13/M03 A301 RMK A01 T01261029  RH  034%=      5-min Rain = 0
KCO1 170247Z 08007KT 13/M03 A301 RMK A01 T01261029  RH  034%=      5-min Rain = 0
KCO1 170248Z 08007KT 13/M03 A301 RMK A01 T01261029  RH  034%=      5-min Rain = 0
KCO1 170249Z 08008KT 13/M03 A301 RMK A01 T01261030  RH  034%=      5-min Rain = 0
KCO1 170250Z 08006KT 13/M03 A301 RMK A01 T01261029  RH  034%=      5-min Rain = 0
KCO1 170251Z 08007KT 13/M03 A301 RMK A01 T01261030  RH  034%=      5-min Rain = 0
KCO1 170252Z 07007KT 13/M03 A301 RMK A01 T01261030  RH  034%=      5-min Rain = 0
KCO1 170253Z 07007KT 13/M03 A301 RMK A01 T01261030  RH  034%=      5-min Rain = 0
KCO1 170254Z 08007KT 13/M03 A301 RMK A01 T01251030  RH  034%=      5-min Rain = 0
KCO1 170255Z 08008KT 13/M03 A301 RMK A01 T01251030  RH  034%=      5-min Rain = 0
KCO1 170256Z 08006KT 13/M03 A301 RMK A01 T01251030  RH  034%=      5-min Rain = 0
KCO1 170257Z 08006KT 13/M03 A301 RMK A01 T01251030  RH  034%=      5-min Rain = 0
KCO1 170258Z 08006KT 13/M03 A301 RMK A01 T01251030  RH  034%=      5-min Rain = 0
KCO1 170259Z 08006KT 13/M03 A301 RMK A01 T01251030  RH  034%=      5-min Rain = 0
KCO1 170300Z 07007KT 12/M03 A301 RMK A01 T01241030  RH  034%=      5-min Rain = 0
KCO1 170301Z 08005KT 13/M03 A301 RMK A01 T01251030  RH  034%=      5-min Rain = 0
KCO1 170302Z 07006KT 12/M03 A301 RMK A01 T01241029  RH  034%=      5-min Rain = 0
KCO1 170303Z 08006KT 12/M03 A301 RMK A01 T01241030  RH  034%=      5-min Rain = 0
KCO1 170304Z 08006KT 12/M03 A301 RMK A01 T01241029  RH  034%=      5-min Rain = 0
KCO1 170305Z 08006KT 12/M03 A301 RMK A01 T01241029  RH  034%=      5-min Rain = 0
KCO1 170306Z 07006KT 12/M03 A301 RMK A01 T01241029  RH  034%=      5-min Rain = 0
KCO1 170307Z 08005KT 12/M03 A301 RMK A01 T01241029  RH  034%=      5-min Rain = 0
KCO1 170308Z 08006KT 12/M03 A301 RMK A01 T01241029  RH  034%=      5-min Rain = 0
KCO1 170309Z 08005KT 12/M03 A301 RMK A01 T01231029  RH  034%=      5-min Rain = 0
KCO1 170310Z 08006KT 12/M03 A301 RMK A01 T01231029  RH  035%=      5-min Rain = 0
KCO1 170311Z 07006KT 12/M03 A301 RMK A01 T01231029  RH  035%=      5-min Rain = 0
KCO1 170312Z 08006KT 12/M03 A301 RMK A01 T01231029  RH  035%=      5-min Rain = 0
KCO1 170313Z 08006KT 12/M03 A301 RMK A01 T01221029  RH  035%=      5-min Rain = 0
KCO1 170314Z 08006KT 12/M03 A3009 RMK A01 T01221029  RH  035%=      5-min Rain = 0
KCO1 170315Z 08006KT 12/M03 A3009 RMK A01 T01221029  RH  035%=      5-min Rain = 0
KCO1 170316Z 08006KT 12/M03 A3009 RMK A01 T01221029  RH  035%=      5-min Rain = 0
KCO1 170317Z 08006KT 12/M03 A3009 RMK A01 T01221029  RH  035%=      5-min Rain = 0
KCO1 170318Z 08006KT 12/M03 A3009 RMK A01 T01211029  RH  035%=      5-min Rain = 0
KCO1 170319Z 08005KT 12/M03 A3009 RMK A01 T01211030  RH  035%=      5-min Rain = 0
KCO1 170320Z 08006KT 12/M03 A3009 RMK A01 T01211029  RH  035%=      5-min Rain = 0
KCO1 170321Z 08005KT 12/M03 A3009 RMK A01 T01211029  RH  035%=      5-min Rain = 0
KCO1 170322Z 09006KT 12/M03 A3009 RMK A01 T01211029  RH  035%=      5-min Rain = 0
KCO1 170323Z 09006KT 12/M03 A3009 RMK A01 T01211029  RH  035%=      5-min Rain = 0
KCO1 170324Z 09007KT 12/M03 A3009 RMK A01 T01201030  RH  035%=      5-min Rain = 0
KCO1 170325Z 09007KT 12/M03 A3009 RMK A01 T01201029  RH  035%=      5-min Rain = 0
KCO1 170326Z 09007KT 12/M03 A3009 RMK A01 T01201029  RH  035%=      5-min Rain = 0
KCO1 170327Z 09007KT 12/M03 A3009 RMK A01 T01201029  RH  035%=      5-min Rain = 0
KCO1 170328Z 08006KT 12/M03 A3009 RMK A01 T01201030  RH  035%=      5-min Rain = 0
KCO1 170329Z 08007KT 12/M03 A3009 RMK A01 T01201029  RH  035%=      5-min Rain = 0
KCO1 170330Z 08006KT 12/M03 A3009 RMK A01 T01201029  RH  035%=      5-min Rain = 0
KCO1 170331Z 08006KT 12/M03 A3009 RMK A01 T01201029  RH  035%=      5-min Rain = 0
KCO1 170332Z 08005KT 12/M03 A3009 RMK A01 T01191029  RH  035%=      5-min Rain = 0
KCO1 170333Z 08005KT 12/M03 A3008 RMK A01 T01191030  RH  035%=      5-min Rain = 0
KCO1 170334Z 08005KT 12/M03 A3008 RMK A01 T01191029  RH  035%=      5-min Rain = 0
KCO1 170335Z 08007KT 12/M03 A3008 RMK A01 T01191030  RH  035%=      5-min Rain = 0
KCO1 170336Z 08007KT 12/M03 A3008 RMK A01 T01181030  RH  035%=      5-min Rain = 0
KCO1 170337Z 08006KT 12/M03 A3008 RMK A01 T01181030  RH  035%=      5-min Rain = 0
KCO1 170338Z 08006KT 12/M03 A3008 RMK A01 T01181030  RH  035%=      5-min Rain = 0
KCO1 170339Z 08006KT 12/M03 A3008 RMK A01 T01181030  RH  035%=      5-min Rain = 0
KCO1 170340Z 08005KT 12/M03 A3008 RMK A01 T01181030  RH  036%=      5-min Rain = 0
KCO1 170341Z 08005KT 12/M03 A3008 RMK A01 T01171030  RH  036%=      5-min Rain = 0
KCO1 170342Z 08005KT 12/M03 A3008 RMK A01 T01171030  RH  036%=      5-min Rain = 0
KCO1 170343Z 08005KT 12/M03 A3008 RMK A01 T01171030  RH  036%=      5-min Rain = 0
KCO1 170344Z 08006KT 12/M03 A3008 RMK A01 T01161030  RH  036%=      5-min Rain = 0
KCO1 170345Z 08006KT 12/M03 A3008 RMK A01 T01161030  RH  036%=      5-min Rain = 0
KCO1 170346Z 08005KT 12/M03 A3009 RMK A01 T01161030  RH  036%=      5-min Rain = 0
KCO1 170347Z 07005KT 12/M03 A3009 RMK A01 T01161029  RH  036%=      5-min Rain = 0
KCO1 170348Z 07004KT 12/M03 A3009 RMK A01 T01151030  RH  036%=      5-min Rain = 0
KCO1 170349Z 07004KT 12/M03 A3009 RMK A01 T01151029  RH  036%=      5-min Rain = 0
KCO1 170350Z 07004KT 12/M03 A3009 RMK A01 T01151030  RH  036%=      5-min Rain = 0
KCO1 170351Z 06004KT 12/M03 A3009 RMK A01 T01151029  RH  036%=      5-min Rain = 0
KCO1 170352Z 06004KT 12/M03 A3009 RMK A01 T01151029  RH  036%=      5-min Rain = 0
KCO1 170353Z 06004KT 11/M03 A3009 RMK A01 T01141029  RH  037%=      5-min Rain = 0
KCO1 170354Z 06004KT 11/M03 A3009 RMK A01 T01141028  RH  037%=      5-min Rain = 0
KCO1 170355Z 07004KT 11/M03 A3008 RMK A01 T01131028  RH  037%=      5-min Rain = 0
KCO1 170356Z 07004KT 11/M03 A3008 RMK A01 T01131028  RH  037%=      5-min Rain = 0
KCO1 170357Z 07005KT 11/M03 A3008 RMK A01 T01121027  RH  038%=      5-min Rain = 0
KCO1 170358Z 07005KT 11/M03 A3008 RMK A01 T01121027  RH  038%=      5-min Rain = 0
KCO1 170359Z 07004KT 11/M03 A3008 RMK A01 T01111027  RH  038%=      5-min Rain = 0
KCO1 170400Z 07004KT 11/M03 A3008 RMK A01 T01111027  RH  038%=      5-min Rain = 0
KCO1 170401Z 07004KT 11/M03 A3008 RMK A01 T01101028  RH  038%=      5-min Rain = 0
KCO1 170402Z 07004KT 11/M03 A3009 RMK A01 T01101027  RH  038%=      5-min Rain = 0
KCO1 170403Z 06004KT 11/M03 A3009 RMK A01 T01101027  RH  038%=      5-min Rain = 0
KCO1 170404Z 05004KT 11/M03 A3009 RMK A01 T01091028  RH  038%=      5-min Rain = 0
KCO1 170405Z 05003KT 11/M03 A3009 RMK A01 T01091028  RH  038%=      5-min Rain = 0
KCO1 170406Z 05003KT 11/M03 A3009 RMK A01 T01081028  RH  038%=      5-min Rain = 0
KCO1 170407Z 04003KT 11/M03 A3009 RMK A01 T01071029  RH  038%=      5-min Rain = 0
KCO1 170408Z 04004KT 11/M03 A3009 RMK A01 T01071029  RH  039%=      5-min Rain = 0
KCO1 170409Z 03004KT 11/M03 A3009 RMK A01 T01061029  RH  039%=      5-min Rain = 0
KCO1 170410Z 03004KT 11/M03 A3009 RMK A01 T01051029  RH  039%=      5-min Rain = 0
KCO1 170411Z 03004KT 10/M03 A3009 RMK A01 T01041029  RH  039%=      5-min Rain = 0
KCO1 170412Z 03004KT 10/M03 A3009 RMK A01 T01031030  RH  039%=      5-min Rain = 0
KCO1 170413Z 04004KT 10/M03 A3009 RMK A01 T01021030  RH  039%=      5-min Rain = 0
KCO1 170414Z 04004KT 10/M03 A3009 RMK A01 T01021030  RH  040%=      5-min Rain = 0
KCO1 170415Z 05004KT 10/M03 A3009 RMK A01 T01021029  RH  040%=      5-min Rain = 0
KCO1 170416Z 05004KT 10/M03 A3009 RMK A01 T01011029  RH  040%=      5-min Rain = 0
KCO1 170417Z 06005KT 10/M03 A3009 RMK A01 T01001029  RH  040%=      5-min Rain = 0
KCO1 170418Z 06005KT 10/M03 A3008 RMK A01 T01001029  RH  040%=      5-min Rain = 0
KCO1 170419Z 06005KT 10/M03 A3008 RMK A01 T00991030  RH  040%=      5-min Rain = 0
KCO1 170420Z 06005KT 10/M03 A3009 RMK A01 T00991029  RH  040%=      5-min Rain = 0
KCO1 170421Z 06005KT 10/M03 A3009 RMK A01 T00991029  RH  040%=      5-min Rain = 0
KCO1 170422Z 05005KT 10/M03 A3009 RMK A01 T00991029  RH  040%=      5-min Rain = 0
KCO1 170423Z 06005KT 10/M03 A3009 RMK A01 T01001029  RH  040%=      5-min Rain = 0
KCO1 170424Z 05005KT 10/M03 A3009 RMK A01 T01001030  RH  040%=      5-min Rain = 0
KCO1 170425Z 06005KT 10/M03 A3009 RMK A01 T01001029  RH  040%=      5-min Rain = 0
KCO1 170426Z 06005KT 10/M03 A3009 RMK A01 T01001029  RH  040%=      5-min Rain = 0
KCO1 170427Z 06005KT 10/M03 A3009 RMK A01 T01001029  RH  040%=      5-min Rain = 0
KCO1 170428Z 06005KT 10/M03 A3009 RMK A01 T01001029  RH  040%=      5-min Rain = 0
KCO1 170429Z 06005KT 10/M03 A3009 RMK A01 T01001029  RH  040%=      5-min Rain = 0
KCO1 170430Z 06005KT 10/M03 A3009 RMK A01 T01001029  RH  040%=      5-min Rain = 0
KCO1 170431Z 06005KT 10/M03 A3009 RMK A01 T00991030  RH  040%=      5-min Rain = 0
KCO1 170432Z 06005KT 10/M03 A3009 RMK A01 T00991030  RH  040%=      5-min Rain = 0
KCO1 170433Z 06005KT 10/M03 A3009 RMK A01 T00991030  RH  040%=      5-min Rain = 0
KCO1 170434Z 06005KT 10/M03 A3009 RMK A01 T00991030  RH  040%=      5-min Rain = 0
KCO1 170435Z 06005KT 10/M03 A3009 RMK A01 T00981030  RH  040%=      5-min Rain = 0
KCO1 170436Z 06005KT 10/M03 A3009 RMK A01 T00981030  RH  040%=      5-min Rain = 0
KCO1 170437Z 06005KT 10/M03 A3009 RMK A01 T00981031  RH  040%=      5-min Rain = 0
KCO1 170438Z 06005KT 10/M03 A3009 RMK A01 T00981031  RH  040%=      5-min Rain = 0
KCO1 170439Z 06005KT 10/M03 A3009 RMK A01 T00981031  RH  040%=      5-min Rain = 0
KCO1 170440Z 05005KT 10/M03 A3009 RMK A01 T00981031  RH  040%=      5-min Rain = 0
KCO1 170441Z 05005KT 10/M03 A3009 RMK A01 T00981031  RH  040%=      5-min Rain = 0
KCO1 170442Z 05005KT 10/M03 A3009 RMK A01 T00981031  RH  040%=      5-min Rain = 0
KCO1 170443Z 05005KT 10/M03 A3009 RMK A01 T00981031  RH  040%=      5-min Rain = 0
KCO1 170444Z 04005KT 10/M03 A3009 RMK A01 T00981031  RH  040%=      5-min Rain = 0
KCO1 170445Z 04005KT 10/M03 A3009 RMK A01 T00971030  RH  041%=      5-min Rain = 0
KCO1 170446Z 04005KT 10/M03 A3009 RMK A01 T00971030  RH  041%=      5-min Rain = 0
KCO1 170447Z 04005KT 10/M03 A3009 RMK A01 T00961031  RH  041%=      5-min Rain = 0
KCO1 170448Z 03005KT 10/M03 A3009 RMK A01 T00961031  RH  041%=      5-min Rain = 0
KCO1 170449Z 03005KT 10/M03 A3009 RMK A01 T00951030  RH  041%=      5-min Rain = 0
KCO1 170450Z 03006KT 10/M03 A301 RMK A01 T00951030  RH  041%=      5-min Rain = 0
KCO1 170451Z 03006KT 10/M03 A301 RMK A01 T00951030  RH  041%=      5-min Rain = 0
KCO1 170452Z 02005KT 10/M03 A301 RMK A01 T00951030  RH  041%=      5-min Rain = 0
KCO1 170453Z 02005KT 10/M03 A301 RMK A01 T00961030  RH  041%=      5-min Rain = 0
KCO1 170454Z 02005KT 10/M03 A301 RMK A01 T00961031  RH  041%=      5-min Rain = 0
KCO1 170455Z 03005KT 10/M03 A301 RMK A01 T00961031  RH  041%=      5-min Rain = 0
KCO1 170456Z 03005KT 10/M03 A301 RMK A01 T00961031  RH  041%=      5-min Rain = 0
KCO1 170457Z 02004KT 10/M03 A301 RMK A01 T00961031  RH  041%=      5-min Rain = 0
KCO1 170458Z 02005KT 10/M03 A301 RMK A01 T00951031  RH  041%=      5-min Rain = 0
KCO1 170459Z 02005KT 10/M03 A301 RMK A01 T00951032  RH  041%=      5-min Rain = 0
KCO1 170500Z 02005KT 09/M03 A301 RMK A01 T00941032  RH  041%=      5-min Rain = 0
KCO1 170501Z 03005KT 09/M03 A301 RMK A01 T00941032  RH  041%=      5-min Rain = 0
KCO1 170502Z 03005KT 09/M03 A301 RMK A01 T00931033  RH  041%=      5-min Rain = 0
KCO1 170503Z 04005KT 09/M03 A301 RMK A01 T00931032  RH  041%=      5-min Rain = 0
KCO1 170504Z 04005KT 09/M03 A3009 RMK A01 T00921032  RH  041%=      5-min Rain = 0
KCO1 170505Z 05006KT 09/M03 A3009 RMK A01 T00931031  RH  041%=      5-min Rain = 0
KCO1 170506Z 05006KT 09/M03 A3009 RMK A01 T00931031  RH  041%=      5-min Rain = 0
KCO1 170507Z 06006KT 09/M03 A3009 RMK A01 T00941030  RH  041%=      5-min Rain = 0
KCO1 170508Z 05005KT 10/M03 A3009 RMK A01 T00961029  RH  041%=      5-min Rain = 0
KCO1 170509Z 05006KT 10/M03 A3009 RMK A01 T00971029  RH  041%=      5-min Rain = 0
KCO1 170510Z 04005KT 10/M03 A3009 RMK A01 T00991028  RH  041%=      5-min Rain = 0
KCO1 170511Z 03006KT 10/M03 A3009 RMK A01 T00991029  RH  041%=      5-min Rain = 0
KCO1 170512Z 02006KT 10/M03 A301 RMK A01 T01001028  RH  040%=      5-min Rain = 0
KCO1 170513Z 00007KT 10/M03 A3011 RMK A01 T01011028  RH  040%=      5-min Rain = 0
KCO1 170514Z 35008KT 10/M03 A3011 RMK A01 T01011028  RH  040%=      5-min Rain = 0
KCO1 170515Z 33010KT 10/M03 A3012 RMK A01 T01011028  RH  040%=      5-min Rain = 0
KCO1 170516Z 32012KT 10/M03 A3014 RMK A01 T01001029  RH  040%=      5-min Rain = 0
KCO1 170517Z 32014KT 10/M03 A3015 RMK A01 T00971032  RH  040%=      5-min Rain = 0
KCO1 170518Z 32016KT 10/M03 A3016 RMK A01 T00951033  RH  041%=      5-min Rain = 0
KCO1 170519Z 32017KT 09/M03 A3016 RMK A01 T00941032  RH  041%=      5-min Rain = 0
KCO1 170520Z 33017KT 10/M03 A3017 RMK A01 T00961031  RH  041%=      5-min Rain = 0
KCO1 170521Z 33017KT 10/M03 A3017 RMK A01 T00981030  RH  041%=      5-min Rain = 0
KCO1 170522Z 33018KT 10/M03 A3017 RMK A01 T00991030  RH  040%=      5-min Rain = 0
KCO1 170523Z 33016KT 10/M03 A3017 RMK A01 T01011030  RH  040%=      5-min Rain = 0
KCO1 170524Z 33015G20KT 10/M03 A3017 RMK A01 T01011031  RH  039%=      5-min Rain = 0
KCO1 170525Z 32015KT 10/M03 A3017 RMK A01 T01011031  RH  039%=      5-min Rain = 0
KCO1 170526Z 32014KT 10/M03 A3018 RMK A01 T01011031  RH  039%=      5-min Rain = 0
KCO1 170527Z 33014KT 10/M03 A3018 RMK A01 T01021031  RH  039%=      5-min Rain = 0
KCO1 170528Z 33013KT 10/M03 A3017 RMK A01 T01021031  RH  039%=      5-min Rain = 0
KCO1 170529Z 33012KT 10/M03 A3017 RMK A01 T01031030  RH  039%=      5-min Rain = 0
KCO1 170530Z 34015KT 10/M03 A3017 RMK A01 T01041030  RH  039%=      5-min Rain = 0
KCO1 170531Z 34014KT 11/M02 A3018 RMK A01 T01051024  RH  040%=      5-min Rain = 0
KCO1 170532Z 34014KT 10/M02 A3018 RMK A01 T01041018  RH  042%=      5-min Rain = 0
KCO1 170533Z 33015KT 10/M02 A3018 RMK A01 T01041017  RH  043%=      5-min Rain = 0
KCO1 170534Z 34015KT 10/M02 A3018 RMK A01 T01041017  RH  043%=      5-min Rain = 0
KCO1 170535Z 34012KT 10/M02 A3017 RMK A01 T01041018  RH  043%=      5-min Rain = 0
KCO1 170536Z 35014KT 10/M02 A3017 RMK A01 T01041019  RH  042%=      5-min Rain = 0
KCO1 170537Z 35013KT 10/M02 A3016 RMK A01 T01041022  RH  041%=      5-min Rain = 0
KCO1 170538Z 35013KT 10/M02 A3016 RMK A01 T01041022  RH  041%=      5-min Rain = 0
KCO1 170539Z 35014KT 10/M02 A3016 RMK A01 T01041023  RH  041%=      5-min Rain = 0
KCO1 170540Z 35014KT 10/M02 A3016 RMK A01 T01041024  RH  041%=      5-min Rain = 0
KCO1 170541Z 35014KT 10/M02 A3017 RMK A01 T01041024  RH  041%=      5-min Rain = 0
KCO1 170542Z 35013KT 10/M02 A3017 RMK A01 T01041024  RH  041%=      5-min Rain = 0
KCO1 170543Z 35014KT 10/M02 A3017 RMK A01 T01041024  RH  041%=      5-min Rain = 0
KCO1 170544Z 35014KT 10/M03 A3017 RMK A01 T01041025  RH  040%=      5-min Rain = 0
KCO1 170545Z 35012KT 10/M03 A3017 RMK A01 T01041026  RH  040%=      5-min Rain = 0
KCO1 170546Z 35012KT 10/M03 A3017 RMK A01 T01041025  RH  040%=      5-min Rain = 0
KCO1 170547Z 35016KT 10/M03 A3017 RMK A01 T01031027  RH  040%=      5-min Rain = 0
KCO1 170548Z 35013KT 10/M03 A3017 RMK A01 T01031027  RH  040%=      5-min Rain = 0
KCO1 170549Z 35014KT 10/M03 A3017 RMK A01 T01031027  RH  040%=      5-min Rain = 0
KCO1 170550Z 36013KT 10/M03 A3017 RMK A01 T01031028  RH  040%=      5-min Rain = 0
KCO1 170551Z 35013KT 10/M03 A3017 RMK A01 T01031028  RH  040%=      5-min Rain = 0
KCO1 170552Z 36013KT 10/M03 A3016 RMK A01 T01031028  RH  040%=      5-min Rain = 0
KCO1 170553Z 36014KT 10/M03 A3016 RMK A01 T01031028  RH  040%=      5-min Rain = 0
KCO1 170554Z 36012KT 10/M03 A3016 RMK A01 T01031029  RH  039%=      5-min Rain = 0
KCO1 170555Z 00013KT 10/M03 A3016 RMK A01 T01031029  RH  039%=      5-min Rain = 0
KCO1 170556Z 00013KT 10/M03 A3016 RMK A01 T01031028  RH  040%=      5-min Rain = 0
KCO1 170557Z 00014KT 10/M03 A3015 RMK A01 T01031028  RH  040%=      5-min Rain = 0
KCO1 170558Z 00015KT 10/M03 A3015 RMK A01 T01031029  RH  039%=      5-min Rain = 0
KCO1 170559Z 00013KT 10/M03 A3015 RMK A01 T01031029  RH  039%=      5-min Rain = 0

Page generated in 0.0675 seconds.